<?xml version="1.0" encoding="UTF-8" standalone="no" ?>
<gpx xmlns="http://www.topografix.com/GPX/1/1" xmlns:xsi="http://www.w3.org/2001/XMLSchema-instance" xsi:schemaLocation="http://www.topografix.com/GPX/1/1 http://www.topografix.com/GPX/1/1/gpx.xsd" version="1.1" creator="VisuGPX - https://www.visugpx.com">
  <metadata>
    <name>Treh-Lauchenkopf </name>
    <desc><![CDATA[raquettes au-dessus des nuages]]></desc>
  </metadata>
  <trk>
    <name><![CDATA[2016-11-14 17:24:48]]></name>
    <trkseg>
      <trkpt lat="47.92443" lon="7.00992">
        <ele>1172.15</ele>
        <time>2016-11-14T13:15:02Z</time>
      </trkpt>
      <trkpt lat="47.92443" lon="7.00992">
        <ele>1172.15</ele>
        <time>2016-11-14T13:15:03Z</time>
      </trkpt>
      <trkpt lat="47.92444" lon="7.00992">
        <ele>1172.04</ele>
        <time>2016-11-14T13:15:23Z</time>
      </trkpt>
      <trkpt lat="47.92446" lon="7.00991">
        <ele>1171.69</ele>
        <time>2016-11-14T13:15:48Z</time>
      </trkpt>
      <trkpt lat="47.92446" lon="7.00989">
        <ele>1171.91</ele>
        <time>2016-11-14T13:16:02Z</time>
      </trkpt>
      <trkpt lat="47.92447" lon="7.00989">
        <ele>1171.22</ele>
        <time>2016-11-14T13:16:23Z</time>
      </trkpt>
      <trkpt lat="47.92447" lon="7.00988">
        <ele>1171.3</ele>
        <time>2016-11-14T13:16:46Z</time>
      </trkpt>
      <trkpt lat="47.92447" lon="7.00989">
        <ele>1171.38</ele>
        <time>2016-11-14T13:17:07Z</time>
      </trkpt>
      <trkpt lat="47.92448" lon="7.00989">
        <ele>1171.44</ele>
        <time>2016-11-14T13:17:31Z</time>
      </trkpt>
      <trkpt lat="47.92444" lon="7.00991">
        <ele>1171.61</ele>
        <time>2016-11-14T13:17:47Z</time>
      </trkpt>
      <trkpt lat="47.92444" lon="7.00991">
        <ele>1172.18</ele>
        <time>2016-11-14T13:18:07Z</time>
      </trkpt>
      <trkpt lat="47.92445" lon="7.00991">
        <ele>1172.16</ele>
        <time>2016-11-14T13:18:27Z</time>
      </trkpt>
      <trkpt lat="47.92445" lon="7.00992">
        <ele>1172.2</ele>
        <time>2016-11-14T13:18:43Z</time>
      </trkpt>
      <trkpt lat="47.92445" lon="7.00992">
        <ele>1172.04</ele>
        <time>2016-11-14T13:19:13Z</time>
      </trkpt>
      <trkpt lat="47.92453" lon="7.00996">
        <ele>1172.12</ele>
        <time>2016-11-14T13:19:25Z</time>
      </trkpt>
      <trkpt lat="47.9246" lon="7.00992">
        <ele>1172</ele>
        <time>2016-11-14T13:19:37Z</time>
      </trkpt>
      <trkpt lat="47.92469" lon="7.0099">
        <ele>1174.9</ele>
        <time>2016-11-14T13:19:53Z</time>
      </trkpt>
      <trkpt lat="47.92475" lon="7.00993">
        <ele>1176.38</ele>
        <time>2016-11-14T13:20:08Z</time>
      </trkpt>
      <trkpt lat="47.9249" lon="7.00989">
        <ele>1177.6</ele>
        <time>2016-11-14T13:20:25Z</time>
      </trkpt>
      <trkpt lat="47.92505" lon="7.00986">
        <ele>1179.65</ele>
        <time>2016-11-14T13:20:44Z</time>
      </trkpt>
      <trkpt lat="47.92514" lon="7.0098">
        <ele>1181</ele>
        <time>2016-11-14T13:20:58Z</time>
      </trkpt>
      <trkpt lat="47.92525" lon="7.00972">
        <ele>1180.51</ele>
        <time>2016-11-14T13:21:14Z</time>
      </trkpt>
      <trkpt lat="47.9254" lon="7.00962">
        <ele>1181.04</ele>
        <time>2016-11-14T13:21:32Z</time>
      </trkpt>
      <trkpt lat="47.92542" lon="7.0096">
        <ele>1181.06</ele>
        <time>2016-11-14T13:21:34Z</time>
      </trkpt>
      <trkpt lat="47.92559" lon="7.00943">
        <ele>1181.38</ele>
        <time>2016-11-14T13:21:54Z</time>
      </trkpt>
      <trkpt lat="47.92569" lon="7.00932">
        <ele>1181.22</ele>
        <time>2016-11-14T13:22:06Z</time>
      </trkpt>
      <trkpt lat="47.92578" lon="7.00918">
        <ele>1180.94</ele>
        <time>2016-11-14T13:22:19Z</time>
      </trkpt>
      <trkpt lat="47.92589" lon="7.00905">
        <ele>1180.32</ele>
        <time>2016-11-14T13:22:32Z</time>
      </trkpt>
      <trkpt lat="47.92595" lon="7.00898">
        <ele>1180.04</ele>
        <time>2016-11-14T13:22:39Z</time>
      </trkpt>
      <trkpt lat="47.92597" lon="7.00896">
        <ele>1180.04</ele>
        <time>2016-11-14T13:22:41Z</time>
      </trkpt>
      <trkpt lat="47.92607" lon="7.00884">
        <ele>1179.91</ele>
        <time>2016-11-14T13:22:54Z</time>
      </trkpt>
      <trkpt lat="47.92615" lon="7.00875">
        <ele>1179.99</ele>
        <time>2016-11-14T13:23:05Z</time>
      </trkpt>
      <trkpt lat="47.92627" lon="7.00868">
        <ele>1180.23</ele>
        <time>2016-11-14T13:23:17Z</time>
      </trkpt>
      <trkpt lat="47.9264" lon="7.00864">
        <ele>1181.03</ele>
        <time>2016-11-14T13:23:30Z</time>
      </trkpt>
      <trkpt lat="47.92641" lon="7.00864">
        <ele>1181.85</ele>
        <time>2016-11-14T13:23:49Z</time>
      </trkpt>
      <trkpt lat="47.92641" lon="7.00865">
        <ele>1181.88</ele>
        <time>2016-11-14T13:24:08Z</time>
      </trkpt>
      <trkpt lat="47.9264" lon="7.00864">
        <ele>1181.32</ele>
        <time>2016-11-14T13:24:26Z</time>
      </trkpt>
      <trkpt lat="47.9264" lon="7.00865">
        <ele>1181.13</ele>
        <time>2016-11-14T13:24:44Z</time>
      </trkpt>
      <trkpt lat="47.92644" lon="7.00867">
        <ele>1181.08</ele>
        <time>2016-11-14T13:25:01Z</time>
      </trkpt>
      <trkpt lat="47.92646" lon="7.00867">
        <ele>1181.15</ele>
        <time>2016-11-14T13:25:03Z</time>
      </trkpt>
      <trkpt lat="47.92662" lon="7.00871">
        <ele>1181.46</ele>
        <time>2016-11-14T13:25:18Z</time>
      </trkpt>
      <trkpt lat="47.92664" lon="7.00872">
        <ele>1181.52</ele>
        <time>2016-11-14T13:25:20Z</time>
      </trkpt>
      <trkpt lat="47.92677" lon="7.00879">
        <ele>1182.66</ele>
        <time>2016-11-14T13:25:33Z</time>
      </trkpt>
      <trkpt lat="47.92688" lon="7.00887">
        <ele>1182.53</ele>
        <time>2016-11-14T13:25:45Z</time>
      </trkpt>
      <trkpt lat="47.92695" lon="7.00903">
        <ele>1183.99</ele>
        <time>2016-11-14T13:25:59Z</time>
      </trkpt>
      <trkpt lat="47.92701" lon="7.00917">
        <ele>1185.82</ele>
        <time>2016-11-14T13:26:11Z</time>
      </trkpt>
      <trkpt lat="47.92711" lon="7.00939">
        <ele>1188.43</ele>
        <time>2016-11-14T13:26:30Z</time>
      </trkpt>
      <trkpt lat="47.92723" lon="7.00964">
        <ele>1190.92</ele>
        <time>2016-11-14T13:26:52Z</time>
      </trkpt>
      <trkpt lat="47.92727" lon="7.00982">
        <ele>1192.6</ele>
        <time>2016-11-14T13:27:08Z</time>
      </trkpt>
      <trkpt lat="47.92727" lon="7.00988">
        <ele>1193.24</ele>
        <time>2016-11-14T13:27:13Z</time>
      </trkpt>
      <trkpt lat="47.92729" lon="7.01002">
        <ele>1194.62</ele>
        <time>2016-11-14T13:27:25Z</time>
      </trkpt>
      <trkpt lat="47.92734" lon="7.01015">
        <ele>1196.7</ele>
        <time>2016-11-14T13:27:42Z</time>
      </trkpt>
      <trkpt lat="47.92737" lon="7.01022">
        <ele>1197.52</ele>
        <time>2016-11-14T13:27:57Z</time>
      </trkpt>
      <trkpt lat="47.92744" lon="7.0104">
        <ele>1198.45</ele>
        <time>2016-11-14T13:28:13Z</time>
      </trkpt>
      <trkpt lat="47.92746" lon="7.01061">
        <ele>1200.84</ele>
        <time>2016-11-14T13:28:31Z</time>
      </trkpt>
      <trkpt lat="47.9275" lon="7.01082">
        <ele>1203.23</ele>
        <time>2016-11-14T13:28:48Z</time>
      </trkpt>
      <trkpt lat="47.92756" lon="7.01101">
        <ele>1205.44</ele>
        <time>2016-11-14T13:29:05Z</time>
      </trkpt>
      <trkpt lat="47.92767" lon="7.01121">
        <ele>1207.85</ele>
        <time>2016-11-14T13:29:24Z</time>
      </trkpt>
      <trkpt lat="47.92772" lon="7.01136">
        <ele>1210.2</ele>
        <time>2016-11-14T13:29:41Z</time>
      </trkpt>
      <trkpt lat="47.9278" lon="7.01151">
        <ele>1212.01</ele>
        <time>2016-11-14T13:29:58Z</time>
      </trkpt>
      <trkpt lat="47.92788" lon="7.01171">
        <ele>1214.37</ele>
        <time>2016-11-14T13:30:16Z</time>
      </trkpt>
      <trkpt lat="47.92795" lon="7.01188">
        <ele>1216.3</ele>
        <time>2016-11-14T13:30:34Z</time>
      </trkpt>
      <trkpt lat="47.92802" lon="7.01203">
        <ele>1218.96</ele>
        <time>2016-11-14T13:30:52Z</time>
      </trkpt>
      <trkpt lat="47.9281" lon="7.01214">
        <ele>1221.09</ele>
        <time>2016-11-14T13:31:07Z</time>
      </trkpt>
      <trkpt lat="47.92814" lon="7.0122">
        <ele>1222.53</ele>
        <time>2016-11-14T13:31:24Z</time>
      </trkpt>
      <trkpt lat="47.92812" lon="7.01224">
        <ele>1223.14</ele>
        <time>2016-11-14T13:31:41Z</time>
      </trkpt>
      <trkpt lat="47.92817" lon="7.01239">
        <ele>1225.69</ele>
        <time>2016-11-14T13:31:57Z</time>
      </trkpt>
      <trkpt lat="47.92817" lon="7.01237">
        <ele>1225.77</ele>
        <time>2016-11-14T13:31:58Z</time>
      </trkpt>
      <trkpt lat="47.92816" lon="7.01228">
        <ele>1225.3</ele>
        <time>2016-11-14T13:32:04Z</time>
      </trkpt>
      <trkpt lat="47.92815" lon="7.01222">
        <ele>1223.75</ele>
        <time>2016-11-14T13:32:17Z</time>
      </trkpt>
      <trkpt lat="47.92816" lon="7.01221">
        <ele>1223.38</ele>
        <time>2016-11-14T13:32:38Z</time>
      </trkpt>
      <trkpt lat="47.92814" lon="7.01221">
        <ele>1223.29</ele>
        <time>2016-11-14T13:32:56Z</time>
      </trkpt>
      <trkpt lat="47.92814" lon="7.01221">
        <ele>1223.22</ele>
        <time>2016-11-14T13:33:17Z</time>
      </trkpt>
      <trkpt lat="47.92815" lon="7.01221">
        <ele>1223.58</ele>
        <time>2016-11-14T13:33:36Z</time>
      </trkpt>
      <trkpt lat="47.92816" lon="7.01228">
        <ele>1223.9</ele>
        <time>2016-11-14T13:33:52Z</time>
      </trkpt>
      <trkpt lat="47.92822" lon="7.01242">
        <ele>1224.85</ele>
        <time>2016-11-14T13:34:07Z</time>
      </trkpt>
      <trkpt lat="47.92825" lon="7.01258">
        <ele>1227.92</ele>
        <time>2016-11-14T13:34:24Z</time>
      </trkpt>
      <trkpt lat="47.92826" lon="7.01271">
        <ele>1231.03</ele>
        <time>2016-11-14T13:34:39Z</time>
      </trkpt>
      <trkpt lat="47.92827" lon="7.01286">
        <ele>1234.06</ele>
        <time>2016-11-14T13:34:55Z</time>
      </trkpt>
      <trkpt lat="47.92829" lon="7.01303">
        <ele>1237.08</ele>
        <time>2016-11-14T13:35:13Z</time>
      </trkpt>
      <trkpt lat="47.92829" lon="7.01329">
        <ele>1239.65</ele>
        <time>2016-11-14T13:35:33Z</time>
      </trkpt>
      <trkpt lat="47.92834" lon="7.01353">
        <ele>1241.44</ele>
        <time>2016-11-14T13:35:53Z</time>
      </trkpt>
      <trkpt lat="47.92839" lon="7.01372">
        <ele>1242.4</ele>
        <time>2016-11-14T13:36:08Z</time>
      </trkpt>
      <trkpt lat="47.92833" lon="7.01384">
        <ele>1244.04</ele>
        <time>2016-11-14T13:36:24Z</time>
      </trkpt>
      <trkpt lat="47.92823" lon="7.01395">
        <ele>1247.08</ele>
        <time>2016-11-14T13:36:42Z</time>
      </trkpt>
      <trkpt lat="47.92814" lon="7.0141">
        <ele>1249.19</ele>
        <time>2016-11-14T13:36:58Z</time>
      </trkpt>
      <trkpt lat="47.92808" lon="7.01423">
        <ele>1250.89</ele>
        <time>2016-11-14T13:37:11Z</time>
      </trkpt>
      <trkpt lat="47.92806" lon="7.01442">
        <ele>1251.7</ele>
        <time>2016-11-14T13:37:25Z</time>
      </trkpt>
      <trkpt lat="47.92813" lon="7.01459">
        <ele>1251.54</ele>
        <time>2016-11-14T13:37:39Z</time>
      </trkpt>
      <trkpt lat="47.92819" lon="7.01474">
        <ele>1250.77</ele>
        <time>2016-11-14T13:37:52Z</time>
      </trkpt>
      <trkpt lat="47.92824" lon="7.01483">
        <ele>1250.2</ele>
        <time>2016-11-14T13:38:03Z</time>
      </trkpt>
      <trkpt lat="47.92824" lon="7.01487">
        <ele>1250.06</ele>
        <time>2016-11-14T13:38:05Z</time>
      </trkpt>
      <trkpt lat="47.92828" lon="7.01499">
        <ele>1249.3</ele>
        <time>2016-11-14T13:38:19Z</time>
      </trkpt>
      <trkpt lat="47.92829" lon="7.015">
        <ele>1249.28</ele>
        <time>2016-11-14T13:38:22Z</time>
      </trkpt>
      <trkpt lat="47.9284" lon="7.01521">
        <ele>1248.18</ele>
        <time>2016-11-14T13:38:39Z</time>
      </trkpt>
      <trkpt lat="47.92847" lon="7.01537">
        <ele>1246.86</ele>
        <time>2016-11-14T13:38:51Z</time>
      </trkpt>
      <trkpt lat="47.92857" lon="7.01553">
        <ele>1245.85</ele>
        <time>2016-11-14T13:39:05Z</time>
      </trkpt>
      <trkpt lat="47.92869" lon="7.01568">
        <ele>1244.63</ele>
        <time>2016-11-14T13:39:18Z</time>
      </trkpt>
      <trkpt lat="47.92879" lon="7.01581">
        <ele>1242.97</ele>
        <time>2016-11-14T13:39:29Z</time>
      </trkpt>
      <trkpt lat="47.92892" lon="7.01595">
        <ele>1240.08</ele>
        <time>2016-11-14T13:39:43Z</time>
      </trkpt>
      <trkpt lat="47.92907" lon="7.01612">
        <ele>1238.23</ele>
        <time>2016-11-14T13:39:59Z</time>
      </trkpt>
      <trkpt lat="47.92921" lon="7.01628">
        <ele>1236.46</ele>
        <time>2016-11-14T13:40:15Z</time>
      </trkpt>
      <trkpt lat="47.92922" lon="7.0163">
        <ele>1236.11</ele>
        <time>2016-11-14T13:40:28Z</time>
      </trkpt>
      <trkpt lat="47.92931" lon="7.01637">
        <ele>1235.85</ele>
        <time>2016-11-14T13:40:39Z</time>
      </trkpt>
      <trkpt lat="47.92942" lon="7.01649">
        <ele>1234.63</ele>
        <time>2016-11-14T13:40:51Z</time>
      </trkpt>
      <trkpt lat="47.92956" lon="7.01665">
        <ele>1233.43</ele>
        <time>2016-11-14T13:41:05Z</time>
      </trkpt>
      <trkpt lat="47.92971" lon="7.01685">
        <ele>1232.43</ele>
        <time>2016-11-14T13:41:22Z</time>
      </trkpt>
      <trkpt lat="47.92983" lon="7.017">
        <ele>1230.97</ele>
        <time>2016-11-14T13:41:35Z</time>
      </trkpt>
      <trkpt lat="47.92995" lon="7.01717">
        <ele>1228.3</ele>
        <time>2016-11-14T13:41:49Z</time>
      </trkpt>
      <trkpt lat="47.9301" lon="7.01731">
        <ele>1226.93</ele>
        <time>2016-11-14T13:42:04Z</time>
      </trkpt>
      <trkpt lat="47.93023" lon="7.01746">
        <ele>1224.84</ele>
        <time>2016-11-14T13:42:18Z</time>
      </trkpt>
      <trkpt lat="47.93038" lon="7.01765">
        <ele>1223.07</ele>
        <time>2016-11-14T13:42:34Z</time>
      </trkpt>
      <trkpt lat="47.93052" lon="7.01784">
        <ele>1222.05</ele>
        <time>2016-11-14T13:42:49Z</time>
      </trkpt>
      <trkpt lat="47.93065" lon="7.018">
        <ele>1220.38</ele>
        <time>2016-11-14T13:43:04Z</time>
      </trkpt>
      <trkpt lat="47.93078" lon="7.01815">
        <ele>1219.06</ele>
        <time>2016-11-14T13:43:17Z</time>
      </trkpt>
      <trkpt lat="47.93093" lon="7.01831">
        <ele>1217.05</ele>
        <time>2016-11-14T13:43:32Z</time>
      </trkpt>
      <trkpt lat="47.93112" lon="7.01848">
        <ele>1215.04</ele>
        <time>2016-11-14T13:43:49Z</time>
      </trkpt>
      <trkpt lat="47.93126" lon="7.01861">
        <ele>1213.76</ele>
        <time>2016-11-14T13:44:03Z</time>
      </trkpt>
      <trkpt lat="47.93144" lon="7.01872">
        <ele>1212.7</ele>
        <time>2016-11-14T13:44:18Z</time>
      </trkpt>
      <trkpt lat="47.93152" lon="7.01876">
        <ele>1212.11</ele>
        <time>2016-11-14T13:44:30Z</time>
      </trkpt>
      <trkpt lat="47.93154" lon="7.01876">
        <ele>1212.19</ele>
        <time>2016-11-14T13:44:56Z</time>
      </trkpt>
      <trkpt lat="47.93155" lon="7.0188">
        <ele>1212.12</ele>
        <time>2016-11-14T13:45:03Z</time>
      </trkpt>
      <trkpt lat="47.93169" lon="7.01898">
        <ele>1211.73</ele>
        <time>2016-11-14T13:45:18Z</time>
      </trkpt>
      <trkpt lat="47.93174" lon="7.019">
        <ele>1211.23</ele>
        <time>2016-11-14T13:45:29Z</time>
      </trkpt>
      <trkpt lat="47.93175" lon="7.019">
        <ele>1210.72</ele>
        <time>2016-11-14T13:45:49Z</time>
      </trkpt>
      <trkpt lat="47.93176" lon="7.01898">
        <ele>1210.62</ele>
        <time>2016-11-14T13:46:15Z</time>
      </trkpt>
      <trkpt lat="47.93176" lon="7.01898">
        <ele>1210.47</ele>
        <time>2016-11-14T13:46:43Z</time>
      </trkpt>
      <trkpt lat="47.93176" lon="7.01899">
        <ele>1211.3</ele>
        <time>2016-11-14T13:47:02Z</time>
      </trkpt>
      <trkpt lat="47.93178" lon="7.01902">
        <ele>1211.27</ele>
        <time>2016-11-14T13:47:07Z</time>
      </trkpt>
      <trkpt lat="47.93182" lon="7.01906">
        <ele>1211.07</ele>
        <time>2016-11-14T13:47:11Z</time>
      </trkpt>
      <trkpt lat="47.93196" lon="7.01919">
        <ele>1210.32</ele>
        <time>2016-11-14T13:47:24Z</time>
      </trkpt>
      <trkpt lat="47.93202" lon="7.01929">
        <ele>1210.18</ele>
        <time>2016-11-14T13:47:32Z</time>
      </trkpt>
      <trkpt lat="47.93211" lon="7.01946">
        <ele>1210.52</ele>
        <time>2016-11-14T13:47:45Z</time>
      </trkpt>
      <trkpt lat="47.93223" lon="7.01953">
        <ele>1210.62</ele>
        <time>2016-11-14T13:47:57Z</time>
      </trkpt>
      <trkpt lat="47.93237" lon="7.01969">
        <ele>1210.25</ele>
        <time>2016-11-14T13:48:12Z</time>
      </trkpt>
      <trkpt lat="47.93246" lon="7.01988">
        <ele>1210.24</ele>
        <time>2016-11-14T13:48:26Z</time>
      </trkpt>
      <trkpt lat="47.93249" lon="7.01996">
        <ele>1210.58</ele>
        <time>2016-11-14T13:48:39Z</time>
      </trkpt>
      <trkpt lat="47.9325" lon="7.02">
        <ele>1210.2</ele>
        <time>2016-11-14T13:48:51Z</time>
      </trkpt>
      <trkpt lat="47.93252" lon="7.02001">
        <ele>1210.24</ele>
        <time>2016-11-14T13:48:54Z</time>
      </trkpt>
      <trkpt lat="47.93255" lon="7.02002">
        <ele>1210.31</ele>
        <time>2016-11-14T13:48:57Z</time>
      </trkpt>
      <trkpt lat="47.93267" lon="7.02013">
        <ele>1210.77</ele>
        <time>2016-11-14T13:49:11Z</time>
      </trkpt>
      <trkpt lat="47.93283" lon="7.02018">
        <ele>1211.15</ele>
        <time>2016-11-14T13:49:26Z</time>
      </trkpt>
      <trkpt lat="47.93297" lon="7.02025">
        <ele>1212.03</ele>
        <time>2016-11-14T13:49:39Z</time>
      </trkpt>
      <trkpt lat="47.933" lon="7.02026">
        <ele>1212.6</ele>
        <time>2016-11-14T13:49:43Z</time>
      </trkpt>
      <trkpt lat="47.93305" lon="7.0203">
        <ele>1213</ele>
        <time>2016-11-14T13:49:48Z</time>
      </trkpt>
      <trkpt lat="47.93312" lon="7.02032">
        <ele>1213.56</ele>
        <time>2016-11-14T13:49:56Z</time>
      </trkpt>
      <trkpt lat="47.93322" lon="7.02034">
        <ele>1214.65</ele>
        <time>2016-11-14T13:50:07Z</time>
      </trkpt>
      <trkpt lat="47.93331" lon="7.02039">
        <ele>1215.76</ele>
        <time>2016-11-14T13:50:17Z</time>
      </trkpt>
      <trkpt lat="47.93345" lon="7.02049">
        <ele>1216.87</ele>
        <time>2016-11-14T13:50:31Z</time>
      </trkpt>
      <trkpt lat="47.93361" lon="7.02063">
        <ele>1218.05</ele>
        <time>2016-11-14T13:50:45Z</time>
      </trkpt>
      <trkpt lat="47.93374" lon="7.02075">
        <ele>1218.56</ele>
        <time>2016-11-14T13:50:59Z</time>
      </trkpt>
      <trkpt lat="47.93389" lon="7.02086">
        <ele>1218.59</ele>
        <time>2016-11-14T13:51:13Z</time>
      </trkpt>
      <trkpt lat="47.93404" lon="7.02097">
        <ele>1218.16</ele>
        <time>2016-11-14T13:51:27Z</time>
      </trkpt>
      <trkpt lat="47.93418" lon="7.02107">
        <ele>1217.59</ele>
        <time>2016-11-14T13:51:40Z</time>
      </trkpt>
      <trkpt lat="47.93433" lon="7.0212">
        <ele>1217.16</ele>
        <time>2016-11-14T13:51:54Z</time>
      </trkpt>
      <trkpt lat="47.93448" lon="7.02132">
        <ele>1216.78</ele>
        <time>2016-11-14T13:52:09Z</time>
      </trkpt>
      <trkpt lat="47.93458" lon="7.02138">
        <ele>1216.1</ele>
        <time>2016-11-14T13:52:22Z</time>
      </trkpt>
      <trkpt lat="47.93457" lon="7.02146">
        <ele>1216.27</ele>
        <time>2016-11-14T13:52:31Z</time>
      </trkpt>
      <trkpt lat="47.93453" lon="7.02174">
        <ele>1213.96</ele>
        <time>2016-11-14T13:52:48Z</time>
      </trkpt>
      <trkpt lat="47.93451" lon="7.02179">
        <ele>1212.54</ele>
        <time>2016-11-14T13:53:00Z</time>
      </trkpt>
      <trkpt lat="47.9345" lon="7.02178">
        <ele>1212.46</ele>
        <time>2016-11-14T13:53:01Z</time>
      </trkpt>
      <trkpt lat="47.9345" lon="7.02175">
        <ele>1212.24</ele>
        <time>2016-11-14T13:53:16Z</time>
      </trkpt>
      <trkpt lat="47.93447" lon="7.02178">
        <ele>1212.33</ele>
        <time>2016-11-14T13:53:33Z</time>
      </trkpt>
      <trkpt lat="47.93447" lon="7.02175">
        <ele>1212.63</ele>
        <time>2016-11-14T13:53:45Z</time>
      </trkpt>
      <trkpt lat="47.93449" lon="7.02176">
        <ele>1212.72</ele>
        <time>2016-11-14T13:53:58Z</time>
      </trkpt>
      <trkpt lat="47.93457" lon="7.02179">
        <ele>1212.83</ele>
        <time>2016-11-14T13:54:05Z</time>
      </trkpt>
      <trkpt lat="47.93476" lon="7.02191">
        <ele>1212.32</ele>
        <time>2016-11-14T13:54:21Z</time>
      </trkpt>
      <trkpt lat="47.93495" lon="7.022">
        <ele>1211.5</ele>
        <time>2016-11-14T13:54:36Z</time>
      </trkpt>
      <trkpt lat="47.9351" lon="7.02209">
        <ele>1211.11</ele>
        <time>2016-11-14T13:54:49Z</time>
      </trkpt>
      <trkpt lat="47.93527" lon="7.02222">
        <ele>1210.85</ele>
        <time>2016-11-14T13:55:04Z</time>
      </trkpt>
      <trkpt lat="47.93543" lon="7.02235">
        <ele>1211.15</ele>
        <time>2016-11-14T13:55:19Z</time>
      </trkpt>
      <trkpt lat="47.93548" lon="7.02238">
        <ele>1211.26</ele>
        <time>2016-11-14T13:55:23Z</time>
      </trkpt>
      <trkpt lat="47.93554" lon="7.02242">
        <ele>1211.45</ele>
        <time>2016-11-14T13:55:29Z</time>
      </trkpt>
      <trkpt lat="47.93572" lon="7.02257">
        <ele>1212.33</ele>
        <time>2016-11-14T13:55:46Z</time>
      </trkpt>
      <trkpt lat="47.93589" lon="7.02272">
        <ele>1212.52</ele>
        <time>2016-11-14T13:56:02Z</time>
      </trkpt>
      <trkpt lat="47.93604" lon="7.02283">
        <ele>1213.2</ele>
        <time>2016-11-14T13:56:16Z</time>
      </trkpt>
      <trkpt lat="47.93617" lon="7.02294">
        <ele>1213.54</ele>
        <time>2016-11-14T13:56:28Z</time>
      </trkpt>
      <trkpt lat="47.93634" lon="7.02306">
        <ele>1214.05</ele>
        <time>2016-11-14T13:56:44Z</time>
      </trkpt>
      <trkpt lat="47.9365" lon="7.02317">
        <ele>1214.39</ele>
        <time>2016-11-14T13:56:59Z</time>
      </trkpt>
      <trkpt lat="47.93669" lon="7.02329">
        <ele>1214.43</ele>
        <time>2016-11-14T13:57:15Z</time>
      </trkpt>
      <trkpt lat="47.93689" lon="7.02342">
        <ele>1213.73</ele>
        <time>2016-11-14T13:57:32Z</time>
      </trkpt>
      <trkpt lat="47.93708" lon="7.02354">
        <ele>1212.86</ele>
        <time>2016-11-14T13:57:48Z</time>
      </trkpt>
      <trkpt lat="47.93726" lon="7.02364">
        <ele>1212.03</ele>
        <time>2016-11-14T13:58:02Z</time>
      </trkpt>
      <trkpt lat="47.93743" lon="7.02373">
        <ele>1211.73</ele>
        <time>2016-11-14T13:58:17Z</time>
      </trkpt>
      <trkpt lat="47.93762" lon="7.02384">
        <ele>1211.64</ele>
        <time>2016-11-14T13:58:33Z</time>
      </trkpt>
      <trkpt lat="47.93778" lon="7.02393">
        <ele>1211.24</ele>
        <time>2016-11-14T13:58:47Z</time>
      </trkpt>
      <trkpt lat="47.93784" lon="7.02396">
        <ele>1211.23</ele>
        <time>2016-11-14T13:58:52Z</time>
      </trkpt>
      <trkpt lat="47.93801" lon="7.02407">
        <ele>1211.17</ele>
        <time>2016-11-14T13:59:07Z</time>
      </trkpt>
      <trkpt lat="47.93815" lon="7.02417">
        <ele>1211.22</ele>
        <time>2016-11-14T13:59:20Z</time>
      </trkpt>
      <trkpt lat="47.9383" lon="7.02426">
        <ele>1211.08</ele>
        <time>2016-11-14T13:59:33Z</time>
      </trkpt>
      <trkpt lat="47.9385" lon="7.02437">
        <ele>1210.83</ele>
        <time>2016-11-14T13:59:49Z</time>
      </trkpt>
      <trkpt lat="47.93867" lon="7.02447">
        <ele>1210.78</ele>
        <time>2016-11-14T14:00:04Z</time>
      </trkpt>
      <trkpt lat="47.93884" lon="7.02455">
        <ele>1210.64</ele>
        <time>2016-11-14T14:00:19Z</time>
      </trkpt>
      <trkpt lat="47.939" lon="7.02463">
        <ele>1211.17</ele>
        <time>2016-11-14T14:00:33Z</time>
      </trkpt>
      <trkpt lat="47.93915" lon="7.02473">
        <ele>1211.44</ele>
        <time>2016-11-14T14:00:46Z</time>
      </trkpt>
      <trkpt lat="47.93922" lon="7.02477">
        <ele>1211.55</ele>
        <time>2016-11-14T14:00:53Z</time>
      </trkpt>
      <trkpt lat="47.93936" lon="7.02484">
        <ele>1211.86</ele>
        <time>2016-11-14T14:01:07Z</time>
      </trkpt>
      <trkpt lat="47.93949" lon="7.02493">
        <ele>1212.09</ele>
        <time>2016-11-14T14:01:20Z</time>
      </trkpt>
      <trkpt lat="47.93964" lon="7.025">
        <ele>1212.23</ele>
        <time>2016-11-14T14:01:34Z</time>
      </trkpt>
      <trkpt lat="47.93967" lon="7.02501">
        <ele>1212.32</ele>
        <time>2016-11-14T14:01:41Z</time>
      </trkpt>
      <trkpt lat="47.93983" lon="7.02508">
        <ele>1212.32</ele>
        <time>2016-11-14T14:01:54Z</time>
      </trkpt>
      <trkpt lat="47.93997" lon="7.02515">
        <ele>1212.37</ele>
        <time>2016-11-14T14:02:06Z</time>
      </trkpt>
      <trkpt lat="47.93998" lon="7.02515">
        <ele>1212.3</ele>
        <time>2016-11-14T14:02:18Z</time>
      </trkpt>
      <trkpt lat="47.93998" lon="7.02515">
        <ele>1212.31</ele>
        <time>2016-11-14T14:02:36Z</time>
      </trkpt>
      <trkpt lat="47.94002" lon="7.02517">
        <ele>1212.36</ele>
        <time>2016-11-14T14:02:53Z</time>
      </trkpt>
      <trkpt lat="47.94009" lon="7.0252">
        <ele>1212.37</ele>
        <time>2016-11-14T14:02:58Z</time>
      </trkpt>
      <trkpt lat="47.94025" lon="7.02527">
        <ele>1212.09</ele>
        <time>2016-11-14T14:03:11Z</time>
      </trkpt>
      <trkpt lat="47.94042" lon="7.02536">
        <ele>1212.06</ele>
        <time>2016-11-14T14:03:25Z</time>
      </trkpt>
      <trkpt lat="47.94056" lon="7.02544">
        <ele>1212.02</ele>
        <time>2016-11-14T14:03:37Z</time>
      </trkpt>
      <trkpt lat="47.94073" lon="7.02552">
        <ele>1211.38</ele>
        <time>2016-11-14T14:03:52Z</time>
      </trkpt>
      <trkpt lat="47.94088" lon="7.02558">
        <ele>1210.9</ele>
        <time>2016-11-14T14:04:04Z</time>
      </trkpt>
      <trkpt lat="47.94102" lon="7.02565">
        <ele>1210.11</ele>
        <time>2016-11-14T14:04:17Z</time>
      </trkpt>
      <trkpt lat="47.94124" lon="7.02579">
        <ele>1209.36</ele>
        <time>2016-11-14T14:04:36Z</time>
      </trkpt>
      <trkpt lat="47.94139" lon="7.02587">
        <ele>1209.35</ele>
        <time>2016-11-14T14:04:50Z</time>
      </trkpt>
      <trkpt lat="47.94154" lon="7.02599">
        <ele>1209.53</ele>
        <time>2016-11-14T14:05:04Z</time>
      </trkpt>
      <trkpt lat="47.94166" lon="7.02607">
        <ele>1209.82</ele>
        <time>2016-11-14T14:05:16Z</time>
      </trkpt>
      <trkpt lat="47.94183" lon="7.02617">
        <ele>1210.51</ele>
        <time>2016-11-14T14:05:32Z</time>
      </trkpt>
      <trkpt lat="47.94194" lon="7.02628">
        <ele>1210.87</ele>
        <time>2016-11-14T14:05:43Z</time>
      </trkpt>
      <trkpt lat="47.94207" lon="7.02639">
        <ele>1211.94</ele>
        <time>2016-11-14T14:05:57Z</time>
      </trkpt>
      <trkpt lat="47.94218" lon="7.02648">
        <ele>1212.47</ele>
        <time>2016-11-14T14:06:09Z</time>
      </trkpt>
      <trkpt lat="47.94234" lon="7.0266">
        <ele>1212.79</ele>
        <time>2016-11-14T14:06:24Z</time>
      </trkpt>
      <trkpt lat="47.94248" lon="7.02674">
        <ele>1212.79</ele>
        <time>2016-11-14T14:06:40Z</time>
      </trkpt>
      <trkpt lat="47.94258" lon="7.02683">
        <ele>1212.97</ele>
        <time>2016-11-14T14:06:53Z</time>
      </trkpt>
      <trkpt lat="47.94261" lon="7.02685">
        <ele>1212.96</ele>
        <time>2016-11-14T14:06:59Z</time>
      </trkpt>
      <trkpt lat="47.94276" lon="7.02698">
        <ele>1212.83</ele>
        <time>2016-11-14T14:07:14Z</time>
      </trkpt>
      <trkpt lat="47.94288" lon="7.02708">
        <ele>1212.56</ele>
        <time>2016-11-14T14:07:26Z</time>
      </trkpt>
      <trkpt lat="47.94299" lon="7.0272">
        <ele>1212.25</ele>
        <time>2016-11-14T14:07:38Z</time>
      </trkpt>
      <trkpt lat="47.94311" lon="7.02734">
        <ele>1212.01</ele>
        <time>2016-11-14T14:07:51Z</time>
      </trkpt>
      <trkpt lat="47.94322" lon="7.02747">
        <ele>1211.22</ele>
        <time>2016-11-14T14:08:02Z</time>
      </trkpt>
      <trkpt lat="47.94331" lon="7.02757">
        <ele>1210.35</ele>
        <time>2016-11-14T14:08:11Z</time>
      </trkpt>
      <trkpt lat="47.94333" lon="7.0276">
        <ele>1210.12</ele>
        <time>2016-11-14T14:08:13Z</time>
      </trkpt>
      <trkpt lat="47.94344" lon="7.02771">
        <ele>1210.26</ele>
        <time>2016-11-14T14:08:26Z</time>
      </trkpt>
      <trkpt lat="47.94352" lon="7.0279">
        <ele>1211.59</ele>
        <time>2016-11-14T14:08:42Z</time>
      </trkpt>
      <trkpt lat="47.94357" lon="7.028">
        <ele>1211.56</ele>
        <time>2016-11-14T14:08:57Z</time>
      </trkpt>
      <trkpt lat="47.94365" lon="7.02811">
        <ele>1212.48</ele>
        <time>2016-11-14T14:09:13Z</time>
      </trkpt>
      <trkpt lat="47.94368" lon="7.02816">
        <ele>1212.71</ele>
        <time>2016-11-14T14:09:19Z</time>
      </trkpt>
      <trkpt lat="47.94382" lon="7.02827">
        <ele>1213.42</ele>
        <time>2016-11-14T14:09:37Z</time>
      </trkpt>
      <trkpt lat="47.94383" lon="7.02827">
        <ele>1213.44</ele>
        <time>2016-11-14T14:09:38Z</time>
      </trkpt>
      <trkpt lat="47.9439" lon="7.02829">
        <ele>1215.62</ele>
        <time>2016-11-14T14:09:57Z</time>
      </trkpt>
      <trkpt lat="47.94391" lon="7.02829">
        <ele>1215.89</ele>
        <time>2016-11-14T14:09:59Z</time>
      </trkpt>
      <trkpt lat="47.94396" lon="7.02831">
        <ele>1216.74</ele>
        <time>2016-11-14T14:10:06Z</time>
      </trkpt>
      <trkpt lat="47.94406" lon="7.02833">
        <ele>1218.09</ele>
        <time>2016-11-14T14:10:18Z</time>
      </trkpt>
      <trkpt lat="47.9442" lon="7.02837">
        <ele>1220.11</ele>
        <time>2016-11-14T14:10:32Z</time>
      </trkpt>
      <trkpt lat="47.94422" lon="7.02838">
        <ele>1220.61</ele>
        <time>2016-11-14T14:10:36Z</time>
      </trkpt>
      <trkpt lat="47.94424" lon="7.02839">
        <ele>1221.38</ele>
        <time>2016-11-14T14:10:41Z</time>
      </trkpt>
      <trkpt lat="47.94429" lon="7.02838">
        <ele>1222</ele>
        <time>2016-11-14T14:10:47Z</time>
      </trkpt>
      <trkpt lat="47.94439" lon="7.02842">
        <ele>1223.6</ele>
        <time>2016-11-14T14:11:00Z</time>
      </trkpt>
      <trkpt lat="47.94442" lon="7.02843">
        <ele>1224</ele>
        <time>2016-11-14T14:11:02Z</time>
      </trkpt>
      <trkpt lat="47.94446" lon="7.02846">
        <ele>1224.45</ele>
        <time>2016-11-14T14:11:07Z</time>
      </trkpt>
      <trkpt lat="47.94456" lon="7.02847">
        <ele>1226.05</ele>
        <time>2016-11-14T14:11:19Z</time>
      </trkpt>
      <trkpt lat="47.94468" lon="7.02849">
        <ele>1228.18</ele>
        <time>2016-11-14T14:11:37Z</time>
      </trkpt>
      <trkpt lat="47.94481" lon="7.02852">
        <ele>1230.49</ele>
        <time>2016-11-14T14:11:55Z</time>
      </trkpt>
      <trkpt lat="47.94488" lon="7.02853">
        <ele>1231.75</ele>
        <time>2016-11-14T14:12:03Z</time>
      </trkpt>
      <trkpt lat="47.94494" lon="7.02853">
        <ele>1232.75</ele>
        <time>2016-11-14T14:12:11Z</time>
      </trkpt>
      <trkpt lat="47.94495" lon="7.02854">
        <ele>1233.15</ele>
        <time>2016-11-14T14:12:13Z</time>
      </trkpt>
      <trkpt lat="47.94499" lon="7.02857">
        <ele>1234.16</ele>
        <time>2016-11-14T14:12:20Z</time>
      </trkpt>
      <trkpt lat="47.94509" lon="7.02864">
        <ele>1236.09</ele>
        <time>2016-11-14T14:12:35Z</time>
      </trkpt>
      <trkpt lat="47.94511" lon="7.02865">
        <ele>1236.3</ele>
        <time>2016-11-14T14:12:38Z</time>
      </trkpt>
      <trkpt lat="47.94522" lon="7.02868">
        <ele>1237.83</ele>
        <time>2016-11-14T14:12:54Z</time>
      </trkpt>
      <trkpt lat="47.94525" lon="7.02872">
        <ele>1238.23</ele>
        <time>2016-11-14T14:13:03Z</time>
      </trkpt>
      <trkpt lat="47.94532" lon="7.02877">
        <ele>1239.21</ele>
        <time>2016-11-14T14:13:21Z</time>
      </trkpt>
      <trkpt lat="47.94535" lon="7.02876">
        <ele>1239.75</ele>
        <time>2016-11-14T14:13:25Z</time>
      </trkpt>
      <trkpt lat="47.9454" lon="7.02878">
        <ele>1240.75</ele>
        <time>2016-11-14T14:13:33Z</time>
      </trkpt>
      <trkpt lat="47.94543" lon="7.02879">
        <ele>1241.06</ele>
        <time>2016-11-14T14:13:36Z</time>
      </trkpt>
      <trkpt lat="47.94552" lon="7.02879">
        <ele>1242.22</ele>
        <time>2016-11-14T14:13:47Z</time>
      </trkpt>
      <trkpt lat="47.94558" lon="7.02878">
        <ele>1243.72</ele>
        <time>2016-11-14T14:13:59Z</time>
      </trkpt>
      <trkpt lat="47.9456" lon="7.02879">
        <ele>1244.18</ele>
        <time>2016-11-14T14:14:03Z</time>
      </trkpt>
      <trkpt lat="47.94564" lon="7.02882">
        <ele>1245.09</ele>
        <time>2016-11-14T14:14:13Z</time>
      </trkpt>
      <trkpt lat="47.94566" lon="7.02883">
        <ele>1245.23</ele>
        <time>2016-11-14T14:14:15Z</time>
      </trkpt>
      <trkpt lat="47.9457" lon="7.02885">
        <ele>1245.55</ele>
        <time>2016-11-14T14:14:19Z</time>
      </trkpt>
      <trkpt lat="47.94572" lon="7.02885">
        <ele>1245.79</ele>
        <time>2016-11-14T14:14:23Z</time>
      </trkpt>
      <trkpt lat="47.94581" lon="7.02884">
        <ele>1247.06</ele>
        <time>2016-11-14T14:14:37Z</time>
      </trkpt>
      <trkpt lat="47.94583" lon="7.02883">
        <ele>1247.62</ele>
        <time>2016-11-14T14:14:41Z</time>
      </trkpt>
      <trkpt lat="47.94588" lon="7.02883">
        <ele>1248.32</ele>
        <time>2016-11-14T14:14:48Z</time>
      </trkpt>
      <trkpt lat="47.94602" lon="7.02885">
        <ele>1251.05</ele>
        <time>2016-11-14T14:15:06Z</time>
      </trkpt>
      <trkpt lat="47.9461" lon="7.02886">
        <ele>1252.59</ele>
        <time>2016-11-14T14:15:19Z</time>
      </trkpt>
      <trkpt lat="47.94619" lon="7.02888">
        <ele>1254.51</ele>
        <time>2016-11-14T14:15:40Z</time>
      </trkpt>
      <trkpt lat="47.94625" lon="7.02892">
        <ele>1255.4</ele>
        <time>2016-11-14T14:15:59Z</time>
      </trkpt>
      <trkpt lat="47.94623" lon="7.02899">
        <ele>1254.48</ele>
        <time>2016-11-14T14:16:24Z</time>
      </trkpt>
      <trkpt lat="47.94629" lon="7.02894">
        <ele>1255.5</ele>
        <time>2016-11-14T14:16:42Z</time>
      </trkpt>
      <trkpt lat="47.94636" lon="7.02894">
        <ele>1256.59</ele>
        <time>2016-11-14T14:16:59Z</time>
      </trkpt>
      <trkpt lat="47.94644" lon="7.02889">
        <ele>1258.83</ele>
        <time>2016-11-14T14:17:16Z</time>
      </trkpt>
      <trkpt lat="47.9465" lon="7.02886">
        <ele>1261.26</ele>
        <time>2016-11-14T14:17:34Z</time>
      </trkpt>
      <trkpt lat="47.94658" lon="7.02891">
        <ele>1261.99</ele>
        <time>2016-11-14T14:17:46Z</time>
      </trkpt>
      <trkpt lat="47.94665" lon="7.0289">
        <ele>1262.9</ele>
        <time>2016-11-14T14:17:56Z</time>
      </trkpt>
      <trkpt lat="47.94675" lon="7.02891">
        <ele>1264.53</ele>
        <time>2016-11-14T14:18:10Z</time>
      </trkpt>
      <trkpt lat="47.94691" lon="7.02895">
        <ele>1266.25</ele>
        <time>2016-11-14T14:18:30Z</time>
      </trkpt>
      <trkpt lat="47.94697" lon="7.02893">
        <ele>1267.57</ele>
        <time>2016-11-14T14:18:42Z</time>
      </trkpt>
      <trkpt lat="47.94706" lon="7.02883">
        <ele>1269.77</ele>
        <time>2016-11-14T14:19:00Z</time>
      </trkpt>
      <trkpt lat="47.94709" lon="7.02883">
        <ele>1270.25</ele>
        <time>2016-11-14T14:19:08Z</time>
      </trkpt>
      <trkpt lat="47.94716" lon="7.02887">
        <ele>1270.89</ele>
        <time>2016-11-14T14:19:21Z</time>
      </trkpt>
      <trkpt lat="47.94721" lon="7.0289">
        <ele>1271.2</ele>
        <time>2016-11-14T14:19:27Z</time>
      </trkpt>
      <trkpt lat="47.94728" lon="7.02894">
        <ele>1271.44</ele>
        <time>2016-11-14T14:19:33Z</time>
      </trkpt>
      <trkpt lat="47.94749" lon="7.02902">
        <ele>1273.06</ele>
        <time>2016-11-14T14:19:50Z</time>
      </trkpt>
      <trkpt lat="47.94764" lon="7.02901">
        <ele>1274.22</ele>
        <time>2016-11-14T14:20:04Z</time>
      </trkpt>
      <trkpt lat="47.9478" lon="7.02896">
        <ele>1276.36</ele>
        <time>2016-11-14T14:20:20Z</time>
      </trkpt>
      <trkpt lat="47.9479" lon="7.02889">
        <ele>1277.22</ele>
        <time>2016-11-14T14:20:36Z</time>
      </trkpt>
      <trkpt lat="47.94804" lon="7.02885">
        <ele>1278.74</ele>
        <time>2016-11-14T14:20:54Z</time>
      </trkpt>
      <trkpt lat="47.94807" lon="7.02885">
        <ele>1278.86</ele>
        <time>2016-11-14T14:20:57Z</time>
      </trkpt>
      <trkpt lat="47.94819" lon="7.02883">
        <ele>1279.25</ele>
        <time>2016-11-14T14:21:08Z</time>
      </trkpt>
      <trkpt lat="47.94835" lon="7.02892">
        <ele>1278.82</ele>
        <time>2016-11-14T14:21:26Z</time>
      </trkpt>
      <trkpt lat="47.94846" lon="7.02903">
        <ele>1278.55</ele>
        <time>2016-11-14T14:21:42Z</time>
      </trkpt>
      <trkpt lat="47.9486" lon="7.02926">
        <ele>1277.62</ele>
        <time>2016-11-14T14:22:02Z</time>
      </trkpt>
      <trkpt lat="47.9487" lon="7.02941">
        <ele>1276.84</ele>
        <time>2016-11-14T14:22:18Z</time>
      </trkpt>
      <trkpt lat="47.94873" lon="7.02944">
        <ele>1276.77</ele>
        <time>2016-11-14T14:22:20Z</time>
      </trkpt>
      <trkpt lat="47.94876" lon="7.02948">
        <ele>1276.52</ele>
        <time>2016-11-14T14:22:23Z</time>
      </trkpt>
      <trkpt lat="47.9489" lon="7.02962">
        <ele>1276.07</ele>
        <time>2016-11-14T14:22:39Z</time>
      </trkpt>
      <trkpt lat="47.94901" lon="7.02981">
        <ele>1275.47</ele>
        <time>2016-11-14T14:22:52Z</time>
      </trkpt>
      <trkpt lat="47.94911" lon="7.02999">
        <ele>1274.71</ele>
        <time>2016-11-14T14:23:04Z</time>
      </trkpt>
      <trkpt lat="47.94921" lon="7.03017">
        <ele>1274.32</ele>
        <time>2016-11-14T14:23:17Z</time>
      </trkpt>
      <trkpt lat="47.94936" lon="7.03044">
        <ele>1273.39</ele>
        <time>2016-11-14T14:23:35Z</time>
      </trkpt>
      <trkpt lat="47.94945" lon="7.03059">
        <ele>1273.18</ele>
        <time>2016-11-14T14:23:46Z</time>
      </trkpt>
      <trkpt lat="47.94953" lon="7.03076">
        <ele>1272.48</ele>
        <time>2016-11-14T14:23:59Z</time>
      </trkpt>
      <trkpt lat="47.9496" lon="7.03098">
        <ele>1271.63</ele>
        <time>2016-11-14T14:24:14Z</time>
      </trkpt>
      <trkpt lat="47.94963" lon="7.03101">
        <ele>1271.61</ele>
        <time>2016-11-14T14:24:16Z</time>
      </trkpt>
      <trkpt lat="47.94974" lon="7.03114">
        <ele>1270.72</ele>
        <time>2016-11-14T14:24:31Z</time>
      </trkpt>
      <trkpt lat="47.94978" lon="7.03125">
        <ele>1269.81</ele>
        <time>2016-11-14T14:24:49Z</time>
      </trkpt>
      <trkpt lat="47.94976" lon="7.03129">
        <ele>1269.54</ele>
        <time>2016-11-14T14:24:53Z</time>
      </trkpt>
      <trkpt lat="47.94977" lon="7.03147">
        <ele>1268</ele>
        <time>2016-11-14T14:25:09Z</time>
      </trkpt>
      <trkpt lat="47.94978" lon="7.03149">
        <ele>1267.64</ele>
        <time>2016-11-14T14:25:12Z</time>
      </trkpt>
      <trkpt lat="47.94981" lon="7.03156">
        <ele>1267.32</ele>
        <time>2016-11-14T14:25:20Z</time>
      </trkpt>
      <trkpt lat="47.9499" lon="7.03181">
        <ele>1266.88</ele>
        <time>2016-11-14T14:25:32Z</time>
      </trkpt>
      <trkpt lat="47.95006" lon="7.03196">
        <ele>1265.59</ele>
        <time>2016-11-14T14:25:44Z</time>
      </trkpt>
      <trkpt lat="47.95006" lon="7.03197">
        <ele>1265.54</ele>
        <time>2016-11-14T14:25:45Z</time>
      </trkpt>
      <trkpt lat="47.95009" lon="7.03201">
        <ele>1265.22</ele>
        <time>2016-11-14T14:25:51Z</time>
      </trkpt>
      <trkpt lat="47.9501" lon="7.03205">
        <ele>1264.8</ele>
        <time>2016-11-14T14:25:56Z</time>
      </trkpt>
      <trkpt lat="47.95027" lon="7.03229">
        <ele>1263.59</ele>
        <time>2016-11-14T14:26:12Z</time>
      </trkpt>
      <trkpt lat="47.95029" lon="7.03232">
        <ele>1263.26</ele>
        <time>2016-11-14T14:26:16Z</time>
      </trkpt>
      <trkpt lat="47.95033" lon="7.03239">
        <ele>1262.82</ele>
        <time>2016-11-14T14:26:21Z</time>
      </trkpt>
      <trkpt lat="47.9504" lon="7.03261">
        <ele>1260.89</ele>
        <time>2016-11-14T14:26:42Z</time>
      </trkpt>
      <trkpt lat="47.95048" lon="7.03277">
        <ele>1259</ele>
        <time>2016-11-14T14:26:57Z</time>
      </trkpt>
      <trkpt lat="47.95079" lon="7.03293">
        <ele>1257.5</ele>
        <time>2016-11-14T14:27:11Z</time>
      </trkpt>
      <trkpt lat="47.95096" lon="7.03302">
        <ele>1256.2</ele>
        <time>2016-11-14T14:27:26Z</time>
      </trkpt>
      <trkpt lat="47.951" lon="7.03306">
        <ele>1255.72</ele>
        <time>2016-11-14T14:27:33Z</time>
      </trkpt>
      <trkpt lat="47.95108" lon="7.03313">
        <ele>1254.63</ele>
        <time>2016-11-14T14:27:42Z</time>
      </trkpt>
      <trkpt lat="47.95124" lon="7.03332">
        <ele>1253.52</ele>
        <time>2016-11-14T14:28:01Z</time>
      </trkpt>
      <trkpt lat="47.95127" lon="7.03343">
        <ele>1253.04</ele>
        <time>2016-11-14T14:28:12Z</time>
      </trkpt>
      <trkpt lat="47.95136" lon="7.03355">
        <ele>1252.46</ele>
        <time>2016-11-14T14:28:21Z</time>
      </trkpt>
      <trkpt lat="47.95148" lon="7.03368">
        <ele>1251.71</ele>
        <time>2016-11-14T14:28:33Z</time>
      </trkpt>
      <trkpt lat="47.95164" lon="7.03385">
        <ele>1250.86</ele>
        <time>2016-11-14T14:28:51Z</time>
      </trkpt>
      <trkpt lat="47.95169" lon="7.03402">
        <ele>1250.56</ele>
        <time>2016-11-14T14:29:06Z</time>
      </trkpt>
      <trkpt lat="47.95178" lon="7.03429">
        <ele>1250.23</ele>
        <time>2016-11-14T14:29:24Z</time>
      </trkpt>
      <trkpt lat="47.95189" lon="7.03445">
        <ele>1250.17</ele>
        <time>2016-11-14T14:29:39Z</time>
      </trkpt>
      <trkpt lat="47.95201" lon="7.03462">
        <ele>1250.21</ele>
        <time>2016-11-14T14:29:53Z</time>
      </trkpt>
      <trkpt lat="47.95214" lon="7.0348">
        <ele>1250.69</ele>
        <time>2016-11-14T14:30:10Z</time>
      </trkpt>
      <trkpt lat="47.95226" lon="7.0349">
        <ele>1250.85</ele>
        <time>2016-11-14T14:30:23Z</time>
      </trkpt>
      <trkpt lat="47.95237" lon="7.03503">
        <ele>1251.41</ele>
        <time>2016-11-14T14:30:35Z</time>
      </trkpt>
      <trkpt lat="47.95238" lon="7.03512">
        <ele>1251.77</ele>
        <time>2016-11-14T14:30:42Z</time>
      </trkpt>
      <trkpt lat="47.95251" lon="7.03524">
        <ele>1252.29</ele>
        <time>2016-11-14T14:30:56Z</time>
      </trkpt>
      <trkpt lat="47.95269" lon="7.03532">
        <ele>1253.52</ele>
        <time>2016-11-14T14:31:14Z</time>
      </trkpt>
      <trkpt lat="47.9528" lon="7.0353">
        <ele>1254.51</ele>
        <time>2016-11-14T14:31:29Z</time>
      </trkpt>
      <trkpt lat="47.95296" lon="7.03533">
        <ele>1255.74</ele>
        <time>2016-11-14T14:31:44Z</time>
      </trkpt>
      <trkpt lat="47.95309" lon="7.03544">
        <ele>1258.54</ele>
        <time>2016-11-14T14:32:02Z</time>
      </trkpt>
      <trkpt lat="47.95319" lon="7.03558">
        <ele>1261.22</ele>
        <time>2016-11-14T14:32:18Z</time>
      </trkpt>
      <trkpt lat="47.95327" lon="7.03571">
        <ele>1263.04</ele>
        <time>2016-11-14T14:32:34Z</time>
      </trkpt>
      <trkpt lat="47.95338" lon="7.03588">
        <ele>1264.58</ele>
        <time>2016-11-14T14:32:54Z</time>
      </trkpt>
      <trkpt lat="47.9535" lon="7.03603">
        <ele>1265.79</ele>
        <time>2016-11-14T14:33:11Z</time>
      </trkpt>
      <trkpt lat="47.95364" lon="7.03622">
        <ele>1268.26</ele>
        <time>2016-11-14T14:33:31Z</time>
      </trkpt>
      <trkpt lat="47.95379" lon="7.03636">
        <ele>1270.26</ele>
        <time>2016-11-14T14:33:49Z</time>
      </trkpt>
      <trkpt lat="47.95387" lon="7.03642">
        <ele>1271.27</ele>
        <time>2016-11-14T14:34:02Z</time>
      </trkpt>
      <trkpt lat="47.95394" lon="7.03639">
        <ele>1272.14</ele>
        <time>2016-11-14T14:34:13Z</time>
      </trkpt>
      <trkpt lat="47.95398" lon="7.03632">
        <ele>1272.84</ele>
        <time>2016-11-14T14:34:25Z</time>
      </trkpt>
      <trkpt lat="47.95404" lon="7.03639">
        <ele>1272.85</ele>
        <time>2016-11-14T14:34:40Z</time>
      </trkpt>
      <trkpt lat="47.95415" lon="7.03664">
        <ele>1274.15</ele>
        <time>2016-11-14T14:34:59Z</time>
      </trkpt>
      <trkpt lat="47.9543" lon="7.03686">
        <ele>1275.68</ele>
        <time>2016-11-14T14:35:18Z</time>
      </trkpt>
      <trkpt lat="47.95437" lon="7.03703">
        <ele>1277.02</ele>
        <time>2016-11-14T14:35:33Z</time>
      </trkpt>
      <trkpt lat="47.95446" lon="7.03716">
        <ele>1278.73</ele>
        <time>2016-11-14T14:35:50Z</time>
      </trkpt>
      <trkpt lat="47.95455" lon="7.03728">
        <ele>1281.85</ele>
        <time>2016-11-14T14:36:06Z</time>
      </trkpt>
      <trkpt lat="47.95462" lon="7.03736">
        <ele>1284.86</ele>
        <time>2016-11-14T14:36:21Z</time>
      </trkpt>
      <trkpt lat="47.9547" lon="7.03743">
        <ele>1287.36</ele>
        <time>2016-11-14T14:36:38Z</time>
      </trkpt>
      <trkpt lat="47.95476" lon="7.0375">
        <ele>1289.9</ele>
        <time>2016-11-14T14:36:54Z</time>
      </trkpt>
      <trkpt lat="47.95483" lon="7.03763">
        <ele>1292.82</ele>
        <time>2016-11-14T14:37:13Z</time>
      </trkpt>
      <trkpt lat="47.95493" lon="7.0378">
        <ele>1295.16</ele>
        <time>2016-11-14T14:37:32Z</time>
      </trkpt>
      <trkpt lat="47.95506" lon="7.03799">
        <ele>1297.04</ele>
        <time>2016-11-14T14:37:53Z</time>
      </trkpt>
      <trkpt lat="47.95518" lon="7.03818">
        <ele>1299.23</ele>
        <time>2016-11-14T14:38:13Z</time>
      </trkpt>
      <trkpt lat="47.9553" lon="7.03835">
        <ele>1301.08</ele>
        <time>2016-11-14T14:38:31Z</time>
      </trkpt>
      <trkpt lat="47.95541" lon="7.03853">
        <ele>1302.67</ele>
        <time>2016-11-14T14:38:48Z</time>
      </trkpt>
      <trkpt lat="47.9555" lon="7.03865">
        <ele>1304.05</ele>
        <time>2016-11-14T14:39:01Z</time>
      </trkpt>
      <trkpt lat="47.95558" lon="7.03877">
        <ele>1306.28</ele>
        <time>2016-11-14T14:39:17Z</time>
      </trkpt>
      <trkpt lat="47.95563" lon="7.03885">
        <ele>1309.36</ele>
        <time>2016-11-14T14:39:33Z</time>
      </trkpt>
      <trkpt lat="47.95565" lon="7.03886">
        <ele>1311.43</ele>
        <time>2016-11-14T14:39:48Z</time>
      </trkpt>
      <trkpt lat="47.95565" lon="7.03883">
        <ele>1312.04</ele>
        <time>2016-11-14T14:40:13Z</time>
      </trkpt>
      <trkpt lat="47.95564" lon="7.03885">
        <ele>1311.96</ele>
        <time>2016-11-14T14:40:34Z</time>
      </trkpt>
      <trkpt lat="47.95564" lon="7.03889">
        <ele>1311.55</ele>
        <time>2016-11-14T14:41:06Z</time>
      </trkpt>
      <trkpt lat="47.95572" lon="7.03899">
        <ele>1312.42</ele>
        <time>2016-11-14T14:41:19Z</time>
      </trkpt>
      <trkpt lat="47.95578" lon="7.03902">
        <ele>1313.2</ele>
        <time>2016-11-14T14:41:31Z</time>
      </trkpt>
      <trkpt lat="47.95579" lon="7.03902">
        <ele>1313.08</ele>
        <time>2016-11-14T14:41:55Z</time>
      </trkpt>
      <trkpt lat="47.95581" lon="7.03905">
        <ele>1313.2</ele>
        <time>2016-11-14T14:42:17Z</time>
      </trkpt>
      <trkpt lat="47.95584" lon="7.0391">
        <ele>1313.31</ele>
        <time>2016-11-14T14:42:22Z</time>
      </trkpt>
      <trkpt lat="47.95596" lon="7.03923">
        <ele>1313.92</ele>
        <time>2016-11-14T14:42:38Z</time>
      </trkpt>
      <trkpt lat="47.95603" lon="7.03931">
        <ele>1314.87</ele>
        <time>2016-11-14T14:42:49Z</time>
      </trkpt>
      <trkpt lat="47.9561" lon="7.03937">
        <ele>1315.7</ele>
        <time>2016-11-14T14:42:58Z</time>
      </trkpt>
      <trkpt lat="47.95616" lon="7.0394">
        <ele>1316.91</ele>
        <time>2016-11-14T14:43:11Z</time>
      </trkpt>
      <trkpt lat="47.95616" lon="7.03941">
        <ele>1317.38</ele>
        <time>2016-11-14T14:43:31Z</time>
      </trkpt>
      <trkpt lat="47.95615" lon="7.0394">
        <ele>1317.1</ele>
        <time>2016-11-14T14:43:50Z</time>
      </trkpt>
      <trkpt lat="47.95616" lon="7.03939">
        <ele>1316.85</ele>
        <time>2016-11-14T14:44:13Z</time>
      </trkpt>
      <trkpt lat="47.95617" lon="7.03938">
        <ele>1316.86</ele>
        <time>2016-11-14T14:44:34Z</time>
      </trkpt>
      <trkpt lat="47.95617" lon="7.03939">
        <ele>1316.54</ele>
        <time>2016-11-14T14:44:59Z</time>
      </trkpt>
      <trkpt lat="47.95617" lon="7.03939">
        <ele>1316.71</ele>
        <time>2016-11-14T14:45:21Z</time>
      </trkpt>
      <trkpt lat="47.95615" lon="7.03931">
        <ele>1316.54</ele>
        <time>2016-11-14T14:45:34Z</time>
      </trkpt>
      <trkpt lat="47.95615" lon="7.03936">
        <ele>1316.63</ele>
        <time>2016-11-14T14:45:49Z</time>
      </trkpt>
      <trkpt lat="47.95615" lon="7.03939">
        <ele>1317.26</ele>
        <time>2016-11-14T14:46:07Z</time>
      </trkpt>
      <trkpt lat="47.95617" lon="7.0394">
        <ele>1316.97</ele>
        <time>2016-11-14T14:46:29Z</time>
      </trkpt>
      <trkpt lat="47.95616" lon="7.03939">
        <ele>1316.86</ele>
        <time>2016-11-14T14:46:46Z</time>
      </trkpt>
      <trkpt lat="47.95617" lon="7.03938">
        <ele>1317.03</ele>
        <time>2016-11-14T14:47:15Z</time>
      </trkpt>
      <trkpt lat="47.95617" lon="7.03939">
        <ele>1317.25</ele>
        <time>2016-11-14T14:47:38Z</time>
      </trkpt>
      <trkpt lat="47.95617" lon="7.03936">
        <ele>1317.51</ele>
        <time>2016-11-14T14:47:50Z</time>
      </trkpt>
      <trkpt lat="47.95615" lon="7.03932">
        <ele>1316.85</ele>
        <time>2016-11-14T14:48:05Z</time>
      </trkpt>
      <trkpt lat="47.95616" lon="7.0394">
        <ele>1316.98</ele>
        <time>2016-11-14T14:48:22Z</time>
      </trkpt>
      <trkpt lat="47.95617" lon="7.0394">
        <ele>1317</ele>
        <time>2016-11-14T14:48:43Z</time>
      </trkpt>
      <trkpt lat="47.95618" lon="7.0394">
        <ele>1317.26</ele>
        <time>2016-11-14T14:49:09Z</time>
      </trkpt>
      <trkpt lat="47.95618" lon="7.03939">
        <ele>1317.12</ele>
        <time>2016-11-14T14:49:29Z</time>
      </trkpt>
      <trkpt lat="47.95617" lon="7.0394">
        <ele>1316.98</ele>
        <time>2016-11-14T14:49:50Z</time>
      </trkpt>
      <trkpt lat="47.95618" lon="7.03939">
        <ele>1317.33</ele>
        <time>2016-11-14T14:50:14Z</time>
      </trkpt>
      <trkpt lat="47.95617" lon="7.03939">
        <ele>1317.28</ele>
        <time>2016-11-14T14:50:44Z</time>
      </trkpt>
      <trkpt lat="47.95618" lon="7.03939">
        <ele>1317.24</ele>
        <time>2016-11-14T14:51:11Z</time>
      </trkpt>
      <trkpt lat="47.95619" lon="7.0394">
        <ele>1317.27</ele>
        <time>2016-11-14T14:51:49Z</time>
      </trkpt>
      <trkpt lat="47.95618" lon="7.03938">
        <ele>1317.4</ele>
        <time>2016-11-14T14:52:23Z</time>
      </trkpt>
      <trkpt lat="47.95618" lon="7.03938">
        <ele>1317.36</ele>
        <time>2016-11-14T14:52:48Z</time>
      </trkpt>
      <trkpt lat="47.95617" lon="7.03938">
        <ele>1317.39</ele>
        <time>2016-11-14T14:53:28Z</time>
      </trkpt>
      <trkpt lat="47.95618" lon="7.03938">
        <ele>1317.36</ele>
        <time>2016-11-14T14:53:58Z</time>
      </trkpt>
      <trkpt lat="47.95617" lon="7.03938">
        <ele>1317.22</ele>
        <time>2016-11-14T14:54:26Z</time>
      </trkpt>
      <trkpt lat="47.95619" lon="7.03938">
        <ele>1317.37</ele>
        <time>2016-11-14T14:54:51Z</time>
      </trkpt>
      <trkpt lat="47.95619" lon="7.03938">
        <ele>1317.24</ele>
        <time>2016-11-14T14:55:18Z</time>
      </trkpt>
      <trkpt lat="47.95619" lon="7.03941">
        <ele>1316.99</ele>
        <time>2016-11-14T14:55:41Z</time>
      </trkpt>
      <trkpt lat="47.95619" lon="7.03939">
        <ele>1317.04</ele>
        <time>2016-11-14T14:56:03Z</time>
      </trkpt>
      <trkpt lat="47.95619" lon="7.03938">
        <ele>1317.4</ele>
        <time>2016-11-14T14:56:26Z</time>
      </trkpt>
      <trkpt lat="47.95618" lon="7.03937">
        <ele>1317.3</ele>
        <time>2016-11-14T14:56:55Z</time>
      </trkpt>
      <trkpt lat="47.95618" lon="7.03937">
        <ele>1317.48</ele>
        <time>2016-11-14T14:57:17Z</time>
      </trkpt>
      <trkpt lat="47.95618" lon="7.03938">
        <ele>1317.76</ele>
        <time>2016-11-14T14:57:36Z</time>
      </trkpt>
      <trkpt lat="47.95618" lon="7.03939">
        <ele>1317.9</ele>
        <time>2016-11-14T14:57:54Z</time>
      </trkpt>
      <trkpt lat="47.95619" lon="7.03942">
        <ele>1317.74</ele>
        <time>2016-11-14T14:58:09Z</time>
      </trkpt>
      <trkpt lat="47.9562" lon="7.0394">
        <ele>1318</ele>
        <time>2016-11-14T14:58:32Z</time>
      </trkpt>
      <trkpt lat="47.95618" lon="7.03941">
        <ele>1317.75</ele>
        <time>2016-11-14T14:58:50Z</time>
      </trkpt>
      <trkpt lat="47.95617" lon="7.03941">
        <ele>1317.64</ele>
        <time>2016-11-14T14:59:04Z</time>
      </trkpt>
      <trkpt lat="47.95616" lon="7.0394">
        <ele>1318.03</ele>
        <time>2016-11-14T14:59:19Z</time>
      </trkpt>
      <trkpt lat="47.95618" lon="7.03939">
        <ele>1318.17</ele>
        <time>2016-11-14T14:59:41Z</time>
      </trkpt>
      <trkpt lat="47.95619" lon="7.03938">
        <ele>1317.84</ele>
        <time>2016-11-14T15:00:07Z</time>
      </trkpt>
      <trkpt lat="47.9562" lon="7.03937">
        <ele>1318.24</ele>
        <time>2016-11-14T15:00:29Z</time>
      </trkpt>
      <trkpt lat="47.9562" lon="7.03937">
        <ele>1318.27</ele>
        <time>2016-11-14T15:00:47Z</time>
      </trkpt>
      <trkpt lat="47.9562" lon="7.03937">
        <ele>1318.5</ele>
        <time>2016-11-14T15:01:14Z</time>
      </trkpt>
      <trkpt lat="47.95619" lon="7.03937">
        <ele>1318.3</ele>
        <time>2016-11-14T15:01:41Z</time>
      </trkpt>
      <trkpt lat="47.95619" lon="7.03938">
        <ele>1318.31</ele>
        <time>2016-11-14T15:02:06Z</time>
      </trkpt>
      <trkpt lat="47.95618" lon="7.03936">
        <ele>1318.36</ele>
        <time>2016-11-14T15:02:29Z</time>
      </trkpt>
      <trkpt lat="47.95618" lon="7.03935">
        <ele>1318.41</ele>
        <time>2016-11-14T15:02:54Z</time>
      </trkpt>
      <trkpt lat="47.95618" lon="7.03935">
        <ele>1318.3</ele>
        <time>2016-11-14T15:03:29Z</time>
      </trkpt>
      <trkpt lat="47.95618" lon="7.03935">
        <ele>1318.48</ele>
        <time>2016-11-14T15:04:10Z</time>
      </trkpt>
      <trkpt lat="47.9562" lon="7.03933">
        <ele>1318.24</ele>
        <time>2016-11-14T15:04:51Z</time>
      </trkpt>
      <trkpt lat="47.95619" lon="7.03933">
        <ele>1318.21</ele>
        <time>2016-11-14T15:05:14Z</time>
      </trkpt>
      <trkpt lat="47.95618" lon="7.03934">
        <ele>1318.02</ele>
        <time>2016-11-14T15:05:54Z</time>
      </trkpt>
      <trkpt lat="47.95618" lon="7.03935">
        <ele>1318.02</ele>
        <time>2016-11-14T15:06:15Z</time>
      </trkpt>
      <trkpt lat="47.95619" lon="7.03934">
        <ele>1318.23</ele>
        <time>2016-11-14T15:06:42Z</time>
      </trkpt>
      <trkpt lat="47.95616" lon="7.03935">
        <ele>1318.06</ele>
        <time>2016-11-14T15:06:47Z</time>
      </trkpt>
      <trkpt lat="47.95613" lon="7.03935">
        <ele>1317.88</ele>
        <time>2016-11-14T15:06:49Z</time>
      </trkpt>
      <trkpt lat="47.95609" lon="7.03934">
        <ele>1317.63</ele>
        <time>2016-11-14T15:06:53Z</time>
      </trkpt>
      <trkpt lat="47.95596" lon="7.03927">
        <ele>1316.1</ele>
        <time>2016-11-14T15:07:05Z</time>
      </trkpt>
      <trkpt lat="47.95594" lon="7.03924">
        <ele>1315.81</ele>
        <time>2016-11-14T15:07:08Z</time>
      </trkpt>
      <trkpt lat="47.95589" lon="7.03917">
        <ele>1315.31</ele>
        <time>2016-11-14T15:07:23Z</time>
      </trkpt>
      <trkpt lat="47.95587" lon="7.03915">
        <ele>1315.17</ele>
        <time>2016-11-14T15:07:31Z</time>
      </trkpt>
      <trkpt lat="47.95586" lon="7.03913">
        <ele>1315.15</ele>
        <time>2016-11-14T15:07:33Z</time>
      </trkpt>
      <trkpt lat="47.9558" lon="7.03907">
        <ele>1314.86</ele>
        <time>2016-11-14T15:07:44Z</time>
      </trkpt>
      <trkpt lat="47.95577" lon="7.03904">
        <ele>1314.79</ele>
        <time>2016-11-14T15:07:46Z</time>
      </trkpt>
      <trkpt lat="47.95562" lon="7.03886">
        <ele>1313.38</ele>
        <time>2016-11-14T15:08:02Z</time>
      </trkpt>
      <trkpt lat="47.95557" lon="7.03877">
        <ele>1310.83</ele>
        <time>2016-11-14T15:08:12Z</time>
      </trkpt>
      <trkpt lat="47.95552" lon="7.03871">
        <ele>1307.91</ele>
        <time>2016-11-14T15:08:24Z</time>
      </trkpt>
      <trkpt lat="47.95552" lon="7.03868">
        <ele>1306.95</ele>
        <time>2016-11-14T15:08:33Z</time>
      </trkpt>
      <trkpt lat="47.95542" lon="7.03865">
        <ele>1306.21</ele>
        <time>2016-11-14T15:08:39Z</time>
      </trkpt>
      <trkpt lat="47.95537" lon="7.03863">
        <ele>1305.39</ele>
        <time>2016-11-14T15:08:43Z</time>
      </trkpt>
      <trkpt lat="47.95534" lon="7.03864">
        <ele>1304.86</ele>
        <time>2016-11-14T15:08:46Z</time>
      </trkpt>
      <trkpt lat="47.95531" lon="7.03863">
        <ele>1304.5</ele>
        <time>2016-11-14T15:08:49Z</time>
      </trkpt>
      <trkpt lat="47.9552" lon="7.03853">
        <ele>1303.66</ele>
        <time>2016-11-14T15:08:59Z</time>
      </trkpt>
      <trkpt lat="47.95504" lon="7.03842">
        <ele>1301.39</ele>
        <time>2016-11-14T15:09:13Z</time>
      </trkpt>
      <trkpt lat="47.95496" lon="7.03838">
        <ele>1299.59</ele>
        <time>2016-11-14T15:09:23Z</time>
      </trkpt>
      <trkpt lat="47.95495" lon="7.03837">
        <ele>1299.07</ele>
        <time>2016-11-14T15:09:31Z</time>
      </trkpt>
      <trkpt lat="47.95493" lon="7.03836">
        <ele>1298.96</ele>
        <time>2016-11-14T15:09:33Z</time>
      </trkpt>
      <trkpt lat="47.95481" lon="7.0383">
        <ele>1297.63</ele>
        <time>2016-11-14T15:09:43Z</time>
      </trkpt>
      <trkpt lat="47.95477" lon="7.03829">
        <ele>1297.15</ele>
        <time>2016-11-14T15:09:46Z</time>
      </trkpt>
      <trkpt lat="47.9546" lon="7.0382">
        <ele>1295.29</ele>
        <time>2016-11-14T15:10:00Z</time>
      </trkpt>
      <trkpt lat="47.95446" lon="7.03811">
        <ele>1294.38</ele>
        <time>2016-11-14T15:10:13Z</time>
      </trkpt>
      <trkpt lat="47.95434" lon="7.03797">
        <ele>1292.71</ele>
        <time>2016-11-14T15:10:26Z</time>
      </trkpt>
      <trkpt lat="47.95431" lon="7.03793">
        <ele>1291.85</ele>
        <time>2016-11-14T15:10:30Z</time>
      </trkpt>
      <trkpt lat="47.95426" lon="7.03776">
        <ele>1288.57</ele>
        <time>2016-11-14T15:10:40Z</time>
      </trkpt>
      <trkpt lat="47.95422" lon="7.03759">
        <ele>1285.39</ele>
        <time>2016-11-14T15:10:49Z</time>
      </trkpt>
      <trkpt lat="47.95416" lon="7.03737">
        <ele>1282.21</ele>
        <time>2016-11-14T15:10:57Z</time>
      </trkpt>
      <trkpt lat="47.95414" lon="7.03734">
        <ele>1281.33</ele>
        <time>2016-11-14T15:10:59Z</time>
      </trkpt>
      <trkpt lat="47.954" lon="7.03726">
        <ele>1278.61</ele>
        <time>2016-11-14T15:11:11Z</time>
      </trkpt>
      <trkpt lat="47.95398" lon="7.0374">
        <ele>1278.38</ele>
        <time>2016-11-14T15:11:20Z</time>
      </trkpt>
      <trkpt lat="47.95395" lon="7.03753">
        <ele>1278.93</ele>
        <time>2016-11-14T15:11:32Z</time>
      </trkpt>
      <trkpt lat="47.95394" lon="7.03756">
        <ele>1279.06</ele>
        <time>2016-11-14T15:11:49Z</time>
      </trkpt>
      <trkpt lat="47.95393" lon="7.03758">
        <ele>1279.03</ele>
        <time>2016-11-14T15:12:06Z</time>
      </trkpt>
      <trkpt lat="47.95395" lon="7.03756">
        <ele>1279.14</ele>
        <time>2016-11-14T15:12:23Z</time>
      </trkpt>
      <trkpt lat="47.95392" lon="7.0375">
        <ele>1279.18</ele>
        <time>2016-11-14T15:12:31Z</time>
      </trkpt>
      <trkpt lat="47.9539" lon="7.03748">
        <ele>1279.2</ele>
        <time>2016-11-14T15:12:33Z</time>
      </trkpt>
      <trkpt lat="47.95372" lon="7.03729">
        <ele>1277.67</ele>
        <time>2016-11-14T15:12:49Z</time>
      </trkpt>
      <trkpt lat="47.95353" lon="7.03708">
        <ele>1275.81</ele>
        <time>2016-11-14T15:13:06Z</time>
      </trkpt>
      <trkpt lat="47.95336" lon="7.03688">
        <ele>1274.3</ele>
        <time>2016-11-14T15:13:22Z</time>
      </trkpt>
      <trkpt lat="47.95322" lon="7.03672">
        <ele>1272.29</ele>
        <time>2016-11-14T15:13:35Z</time>
      </trkpt>
      <trkpt lat="47.95307" lon="7.03655">
        <ele>1269.25</ele>
        <time>2016-11-14T15:13:48Z</time>
      </trkpt>
      <trkpt lat="47.95291" lon="7.03637">
        <ele>1266.33</ele>
        <time>2016-11-14T15:14:03Z</time>
      </trkpt>
      <trkpt lat="47.95278" lon="7.03622">
        <ele>1265.18</ele>
        <time>2016-11-14T15:14:15Z</time>
      </trkpt>
      <trkpt lat="47.95264" lon="7.03604">
        <ele>1262.91</ele>
        <time>2016-11-14T15:14:30Z</time>
      </trkpt>
      <trkpt lat="47.95253" lon="7.03587">
        <ele>1259.88</ele>
        <time>2016-11-14T15:14:42Z</time>
      </trkpt>
      <trkpt lat="47.95245" lon="7.03569">
        <ele>1257.09</ele>
        <time>2016-11-14T15:14:54Z</time>
      </trkpt>
      <trkpt lat="47.95243" lon="7.03564">
        <ele>1256.64</ele>
        <time>2016-11-14T15:14:57Z</time>
      </trkpt>
      <trkpt lat="47.95236" lon="7.03557">
        <ele>1255.98</ele>
        <time>2016-11-14T15:15:03Z</time>
      </trkpt>
      <trkpt lat="47.95226" lon="7.03536">
        <ele>1254.35</ele>
        <time>2016-11-14T15:15:15Z</time>
      </trkpt>
      <trkpt lat="47.95218" lon="7.03518">
        <ele>1253.23</ele>
        <time>2016-11-14T15:15:26Z</time>
      </trkpt>
      <trkpt lat="47.95212" lon="7.03501">
        <ele>1252.44</ele>
        <time>2016-11-14T15:15:36Z</time>
      </trkpt>
      <trkpt lat="47.9521" lon="7.03493">
        <ele>1252.03</ele>
        <time>2016-11-14T15:15:40Z</time>
      </trkpt>
      <trkpt lat="47.95203" lon="7.0348">
        <ele>1251.32</ele>
        <time>2016-11-14T15:15:49Z</time>
      </trkpt>
      <trkpt lat="47.95196" lon="7.03472">
        <ele>1251.17</ele>
        <time>2016-11-14T15:15:56Z</time>
      </trkpt>
      <trkpt lat="47.95182" lon="7.03459">
        <ele>1251.04</ele>
        <time>2016-11-14T15:16:09Z</time>
      </trkpt>
      <trkpt lat="47.95177" lon="7.03438">
        <ele>1250.96</ele>
        <time>2016-11-14T15:16:23Z</time>
      </trkpt>
      <trkpt lat="47.95173" lon="7.03425">
        <ele>1250.93</ele>
        <time>2016-11-14T15:16:30Z</time>
      </trkpt>
      <trkpt lat="47.95167" lon="7.03403">
        <ele>1250.81</ele>
        <time>2016-11-14T15:16:44Z</time>
      </trkpt>
      <trkpt lat="47.95159" lon="7.03401">
        <ele>1250.65</ele>
        <time>2016-11-14T15:16:59Z</time>
      </trkpt>
      <trkpt lat="47.95142" lon="7.03386">
        <ele>1249.83</ele>
        <time>2016-11-14T15:17:15Z</time>
      </trkpt>
      <trkpt lat="47.95128" lon="7.0337">
        <ele>1249.57</ele>
        <time>2016-11-14T15:17:29Z</time>
      </trkpt>
      <trkpt lat="47.95123" lon="7.03369">
        <ele>1247.18</ele>
        <time>2016-11-14T15:17:39Z</time>
      </trkpt>
      <trkpt lat="47.95111" lon="7.03364">
        <ele>1243.88</ele>
        <time>2016-11-14T15:17:52Z</time>
      </trkpt>
      <trkpt lat="47.95101" lon="7.03367">
        <ele>1240.56</ele>
        <time>2016-11-14T15:18:02Z</time>
      </trkpt>
      <trkpt lat="47.95098" lon="7.0337">
        <ele>1239.3</ele>
        <time>2016-11-14T15:18:05Z</time>
      </trkpt>
      <trkpt lat="47.95085" lon="7.03383">
        <ele>1236.83</ele>
        <time>2016-11-14T15:18:20Z</time>
      </trkpt>
      <trkpt lat="47.95072" lon="7.03398">
        <ele>1236.28</ele>
        <time>2016-11-14T15:18:36Z</time>
      </trkpt>
      <trkpt lat="47.95057" lon="7.03394">
        <ele>1237.88</ele>
        <time>2016-11-14T15:18:53Z</time>
      </trkpt>
      <trkpt lat="47.9505" lon="7.03393">
        <ele>1236.81</ele>
        <time>2016-11-14T15:19:09Z</time>
      </trkpt>
      <trkpt lat="47.95046" lon="7.03391">
        <ele>1236.36</ele>
        <time>2016-11-14T15:19:37Z</time>
      </trkpt>
      <trkpt lat="47.95045" lon="7.03393">
        <ele>1236.21</ele>
        <time>2016-11-14T15:19:46Z</time>
      </trkpt>
      <trkpt lat="47.95043" lon="7.03404">
        <ele>1235.58</ele>
        <time>2016-11-14T15:20:02Z</time>
      </trkpt>
      <trkpt lat="47.95039" lon="7.03413">
        <ele>1232.56</ele>
        <time>2016-11-14T15:20:10Z</time>
      </trkpt>
      <trkpt lat="47.95033" lon="7.03419">
        <ele>1229.12</ele>
        <time>2016-11-14T15:20:18Z</time>
      </trkpt>
      <trkpt lat="47.95024" lon="7.03424">
        <ele>1225.83</ele>
        <time>2016-11-14T15:20:27Z</time>
      </trkpt>
      <trkpt lat="47.95016" lon="7.03432">
        <ele>1223.3</ele>
        <time>2016-11-14T15:20:36Z</time>
      </trkpt>
      <trkpt lat="47.95005" lon="7.03441">
        <ele>1220.23</ele>
        <time>2016-11-14T15:20:47Z</time>
      </trkpt>
      <trkpt lat="47.94995" lon="7.0345">
        <ele>1217.04</ele>
        <time>2016-11-14T15:20:58Z</time>
      </trkpt>
      <trkpt lat="47.94988" lon="7.03457">
        <ele>1214.04</ele>
        <time>2016-11-14T15:21:08Z</time>
      </trkpt>
      <trkpt lat="47.94977" lon="7.03468">
        <ele>1210.82</ele>
        <time>2016-11-14T15:21:21Z</time>
      </trkpt>
      <trkpt lat="47.94966" lon="7.03471">
        <ele>1207.7</ele>
        <time>2016-11-14T15:21:31Z</time>
      </trkpt>
      <trkpt lat="47.94952" lon="7.03478">
        <ele>1205.82</ele>
        <time>2016-11-14T15:21:45Z</time>
      </trkpt>
      <trkpt lat="47.94945" lon="7.03482">
        <ele>1205.18</ele>
        <time>2016-11-14T15:21:50Z</time>
      </trkpt>
      <trkpt lat="47.94932" lon="7.03488">
        <ele>1203.36</ele>
        <time>2016-11-14T15:22:01Z</time>
      </trkpt>
      <trkpt lat="47.94918" lon="7.03497">
        <ele>1201.26</ele>
        <time>2016-11-14T15:22:11Z</time>
      </trkpt>
      <trkpt lat="47.94904" lon="7.03503">
        <ele>1198.8</ele>
        <time>2016-11-14T15:22:24Z</time>
      </trkpt>
      <trkpt lat="47.94902" lon="7.03504">
        <ele>1198.45</ele>
        <time>2016-11-14T15:22:26Z</time>
      </trkpt>
      <trkpt lat="47.94895" lon="7.03509">
        <ele>1197.37</ele>
        <time>2016-11-14T15:22:32Z</time>
      </trkpt>
      <trkpt lat="47.94882" lon="7.03522">
        <ele>1195.08</ele>
        <time>2016-11-14T15:22:43Z</time>
      </trkpt>
      <trkpt lat="47.94868" lon="7.03533">
        <ele>1193.03</ele>
        <time>2016-11-14T15:22:54Z</time>
      </trkpt>
      <trkpt lat="47.94858" lon="7.03541">
        <ele>1190.96</ele>
        <time>2016-11-14T15:23:05Z</time>
      </trkpt>
      <trkpt lat="47.94842" lon="7.03555">
        <ele>1188.82</ele>
        <time>2016-11-14T15:23:20Z</time>
      </trkpt>
      <trkpt lat="47.94831" lon="7.03559">
        <ele>1187.43</ele>
        <time>2016-11-14T15:23:28Z</time>
      </trkpt>
      <trkpt lat="47.94818" lon="7.03563">
        <ele>1185.15</ele>
        <time>2016-11-14T15:23:39Z</time>
      </trkpt>
      <trkpt lat="47.94804" lon="7.03567">
        <ele>1183.25</ele>
        <time>2016-11-14T15:23:49Z</time>
      </trkpt>
      <trkpt lat="47.94791" lon="7.03572">
        <ele>1181.73</ele>
        <time>2016-11-14T15:23:59Z</time>
      </trkpt>
      <trkpt lat="47.9478" lon="7.03576">
        <ele>1180.46</ele>
        <time>2016-11-14T15:24:08Z</time>
      </trkpt>
      <trkpt lat="47.94765" lon="7.03586">
        <ele>1177.98</ele>
        <time>2016-11-14T15:24:22Z</time>
      </trkpt>
      <trkpt lat="47.94745" lon="7.0359">
        <ele>1175.62</ele>
        <time>2016-11-14T15:24:37Z</time>
      </trkpt>
      <trkpt lat="47.94729" lon="7.03594">
        <ele>1173.38</ele>
        <time>2016-11-14T15:24:51Z</time>
      </trkpt>
      <trkpt lat="47.94717" lon="7.03581">
        <ele>1172.92</ele>
        <time>2016-11-14T15:25:07Z</time>
      </trkpt>
      <trkpt lat="47.94724" lon="7.03556">
        <ele>1175.81</ele>
        <time>2016-11-14T15:25:24Z</time>
      </trkpt>
      <trkpt lat="47.94721" lon="7.03534">
        <ele>1178.87</ele>
        <time>2016-11-14T15:25:39Z</time>
      </trkpt>
      <trkpt lat="47.94714" lon="7.03532">
        <ele>1181.54</ele>
        <time>2016-11-14T15:25:54Z</time>
      </trkpt>
      <trkpt lat="47.94707" lon="7.03525">
        <ele>1184.6</ele>
        <time>2016-11-14T15:26:11Z</time>
      </trkpt>
      <trkpt lat="47.94699" lon="7.03513">
        <ele>1187.7</ele>
        <time>2016-11-14T15:26:28Z</time>
      </trkpt>
      <trkpt lat="47.94694" lon="7.03501">
        <ele>1190.68</ele>
        <time>2016-11-14T15:26:45Z</time>
      </trkpt>
      <trkpt lat="47.94691" lon="7.03495">
        <ele>1192.65</ele>
        <time>2016-11-14T15:27:06Z</time>
      </trkpt>
      <trkpt lat="47.94693" lon="7.03494">
        <ele>1192.04</ele>
        <time>2016-11-14T15:27:30Z</time>
      </trkpt>
      <trkpt lat="47.9469" lon="7.03494">
        <ele>1191.91</ele>
        <time>2016-11-14T15:28:02Z</time>
      </trkpt>
      <trkpt lat="47.94687" lon="7.03494">
        <ele>1192.03</ele>
        <time>2016-11-14T15:28:50Z</time>
      </trkpt>
      <trkpt lat="47.94688" lon="7.03484">
        <ele>1193.42</ele>
        <time>2016-11-14T15:29:08Z</time>
      </trkpt>
      <trkpt lat="47.94689" lon="7.03474">
        <ele>1195.5</ele>
        <time>2016-11-14T15:29:23Z</time>
      </trkpt>
      <trkpt lat="47.94679" lon="7.03461">
        <ele>1197.58</ele>
        <time>2016-11-14T15:29:40Z</time>
      </trkpt>
      <trkpt lat="47.94672" lon="7.03462">
        <ele>1198.21</ele>
        <time>2016-11-14T15:29:54Z</time>
      </trkpt>
      <trkpt lat="47.94668" lon="7.03466">
        <ele>1197.59</ele>
        <time>2016-11-14T15:30:08Z</time>
      </trkpt>
      <trkpt lat="47.94667" lon="7.0347">
        <ele>1198.04</ele>
        <time>2016-11-14T15:30:48Z</time>
      </trkpt>
      <trkpt lat="47.94664" lon="7.03472">
        <ele>1197.75</ele>
        <time>2016-11-14T15:31:12Z</time>
      </trkpt>
      <trkpt lat="47.94658" lon="7.03485">
        <ele>1197.7</ele>
        <time>2016-11-14T15:31:35Z</time>
      </trkpt>
      <trkpt lat="47.94663" lon="7.03478">
        <ele>1197.63</ele>
        <time>2016-11-14T15:31:52Z</time>
      </trkpt>
      <trkpt lat="47.94664" lon="7.03476">
        <ele>1197.64</ele>
        <time>2016-11-14T15:31:54Z</time>
      </trkpt>
      <trkpt lat="47.94666" lon="7.03472">
        <ele>1197.61</ele>
        <time>2016-11-14T15:32:13Z</time>
      </trkpt>
      <trkpt lat="47.94663" lon="7.03475">
        <ele>1197.25</ele>
        <time>2016-11-14T15:32:17Z</time>
      </trkpt>
      <trkpt lat="47.94657" lon="7.0347">
        <ele>1196.91</ele>
        <time>2016-11-14T15:32:30Z</time>
      </trkpt>
      <trkpt lat="47.94653" lon="7.03443">
        <ele>1198.48</ele>
        <time>2016-11-14T15:32:50Z</time>
      </trkpt>
      <trkpt lat="47.94653" lon="7.03441">
        <ele>1198.57</ele>
        <time>2016-11-14T15:32:52Z</time>
      </trkpt>
      <trkpt lat="47.9465" lon="7.03421">
        <ele>1199.4</ele>
        <time>2016-11-14T15:33:10Z</time>
      </trkpt>
      <trkpt lat="47.94646" lon="7.03388">
        <ele>1200.8</ele>
        <time>2016-11-14T15:33:29Z</time>
      </trkpt>
      <trkpt lat="47.94649" lon="7.03366">
        <ele>1202.39</ele>
        <time>2016-11-14T15:33:43Z</time>
      </trkpt>
      <trkpt lat="47.94647" lon="7.03343">
        <ele>1204.12</ele>
        <time>2016-11-14T15:34:00Z</time>
      </trkpt>
      <trkpt lat="47.94638" lon="7.03331">
        <ele>1204.44</ele>
        <time>2016-11-14T15:34:15Z</time>
      </trkpt>
      <trkpt lat="47.94629" lon="7.03315">
        <ele>1204.33</ele>
        <time>2016-11-14T15:34:30Z</time>
      </trkpt>
      <trkpt lat="47.94629" lon="7.03314">
        <ele>1204.39</ele>
        <time>2016-11-14T15:34:31Z</time>
      </trkpt>
      <trkpt lat="47.9462" lon="7.03294">
        <ele>1204.59</ele>
        <time>2016-11-14T15:34:47Z</time>
      </trkpt>
      <trkpt lat="47.94612" lon="7.03271">
        <ele>1204.41</ele>
        <time>2016-11-14T15:35:05Z</time>
      </trkpt>
      <trkpt lat="47.94611" lon="7.03247">
        <ele>1205.61</ele>
        <time>2016-11-14T15:35:22Z</time>
      </trkpt>
      <trkpt lat="47.94615" lon="7.0323">
        <ele>1206.73</ele>
        <time>2016-11-14T15:35:34Z</time>
      </trkpt>
      <trkpt lat="47.94619" lon="7.03214">
        <ele>1207.83</ele>
        <time>2016-11-14T15:35:45Z</time>
      </trkpt>
      <trkpt lat="47.94619" lon="7.03195">
        <ele>1208.45</ele>
        <time>2016-11-14T15:36:01Z</time>
      </trkpt>
      <trkpt lat="47.94616" lon="7.03182">
        <ele>1207.05</ele>
        <time>2016-11-14T15:36:15Z</time>
      </trkpt>
      <trkpt lat="47.94611" lon="7.03157">
        <ele>1204.76</ele>
        <time>2016-11-14T15:36:33Z</time>
      </trkpt>
      <trkpt lat="47.94603" lon="7.03129">
        <ele>1203.61</ele>
        <time>2016-11-14T15:36:49Z</time>
      </trkpt>
      <trkpt lat="47.94601" lon="7.03113">
        <ele>1203.5</ele>
        <time>2016-11-14T15:37:02Z</time>
      </trkpt>
      <trkpt lat="47.94589" lon="7.03107">
        <ele>1200.49</ele>
        <time>2016-11-14T15:37:15Z</time>
      </trkpt>
      <trkpt lat="47.94576" lon="7.03091">
        <ele>1198.66</ele>
        <time>2016-11-14T15:37:32Z</time>
      </trkpt>
      <trkpt lat="47.94571" lon="7.03086">
        <ele>1198.87</ele>
        <time>2016-11-14T15:37:38Z</time>
      </trkpt>
      <trkpt lat="47.94569" lon="7.03081">
        <ele>1198.93</ele>
        <time>2016-11-14T15:37:42Z</time>
      </trkpt>
      <trkpt lat="47.94554" lon="7.03067">
        <ele>1199.04</ele>
        <time>2016-11-14T15:38:01Z</time>
      </trkpt>
      <trkpt lat="47.94547" lon="7.0305">
        <ele>1201.1</ele>
        <time>2016-11-14T15:38:17Z</time>
      </trkpt>
      <trkpt lat="47.94538" lon="7.03037">
        <ele>1203.52</ele>
        <time>2016-11-14T15:38:34Z</time>
      </trkpt>
      <trkpt lat="47.94536" lon="7.03034">
        <ele>1204.06</ele>
        <time>2016-11-14T15:38:39Z</time>
      </trkpt>
      <trkpt lat="47.94528" lon="7.03018">
        <ele>1207.19</ele>
        <time>2016-11-14T15:38:59Z</time>
      </trkpt>
      <trkpt lat="47.94522" lon="7.03009">
        <ele>1208.94</ele>
        <time>2016-11-14T15:39:15Z</time>
      </trkpt>
      <trkpt lat="47.94522" lon="7.03008">
        <ele>1209.06</ele>
        <time>2016-11-14T15:39:16Z</time>
      </trkpt>
      <trkpt lat="47.94515" lon="7.02995">
        <ele>1211.38</ele>
        <time>2016-11-14T15:39:33Z</time>
      </trkpt>
      <trkpt lat="47.94514" lon="7.0299">
        <ele>1212.45</ele>
        <time>2016-11-14T15:39:43Z</time>
      </trkpt>
      <trkpt lat="47.94509" lon="7.02975">
        <ele>1215.05</ele>
        <time>2016-11-14T15:40:03Z</time>
      </trkpt>
      <trkpt lat="47.945" lon="7.02966">
        <ele>1217.41</ele>
        <time>2016-11-14T15:40:21Z</time>
      </trkpt>
      <trkpt lat="47.94492" lon="7.02954">
        <ele>1219.09</ele>
        <time>2016-11-14T15:40:40Z</time>
      </trkpt>
      <trkpt lat="47.94487" lon="7.02944">
        <ele>1220.78</ele>
        <time>2016-11-14T15:41:00Z</time>
      </trkpt>
      <trkpt lat="47.94484" lon="7.02938">
        <ele>1221.69</ele>
        <time>2016-11-14T15:41:09Z</time>
      </trkpt>
      <trkpt lat="47.94483" lon="7.02935">
        <ele>1221.75</ele>
        <time>2016-11-14T15:41:11Z</time>
      </trkpt>
      <trkpt lat="47.94469" lon="7.02926">
        <ele>1220.03</ele>
        <time>2016-11-14T15:41:26Z</time>
      </trkpt>
      <trkpt lat="47.94469" lon="7.02925">
        <ele>1219.83</ele>
        <time>2016-11-14T15:41:27Z</time>
      </trkpt>
      <trkpt lat="47.9446" lon="7.02903">
        <ele>1218.98</ele>
        <time>2016-11-14T15:41:47Z</time>
      </trkpt>
      <trkpt lat="47.94451" lon="7.02881">
        <ele>1219.2</ele>
        <time>2016-11-14T15:42:02Z</time>
      </trkpt>
      <trkpt lat="47.94445" lon="7.02872">
        <ele>1218.95</ele>
        <time>2016-11-14T15:42:12Z</time>
      </trkpt>
      <trkpt lat="47.94441" lon="7.02868">
        <ele>1218.6</ele>
        <time>2016-11-14T15:42:17Z</time>
      </trkpt>
      <trkpt lat="47.94431" lon="7.02861">
        <ele>1218.16</ele>
        <time>2016-11-14T15:42:31Z</time>
      </trkpt>
      <trkpt lat="47.94424" lon="7.02854">
        <ele>1218.07</ele>
        <time>2016-11-14T15:42:41Z</time>
      </trkpt>
      <trkpt lat="47.94413" lon="7.02844">
        <ele>1216.67</ele>
        <time>2016-11-14T15:42:58Z</time>
      </trkpt>
      <trkpt lat="47.94398" lon="7.02827">
        <ele>1215.08</ele>
        <time>2016-11-14T15:43:14Z</time>
      </trkpt>
      <trkpt lat="47.94387" lon="7.0282">
        <ele>1214.52</ele>
        <time>2016-11-14T15:43:25Z</time>
      </trkpt>
      <trkpt lat="47.9438" lon="7.02817">
        <ele>1214.03</ele>
        <time>2016-11-14T15:43:30Z</time>
      </trkpt>
      <trkpt lat="47.94366" lon="7.0281">
        <ele>1212.17</ele>
        <time>2016-11-14T15:43:42Z</time>
      </trkpt>
      <trkpt lat="47.94353" lon="7.02802">
        <ele>1210.98</ele>
        <time>2016-11-14T15:43:52Z</time>
      </trkpt>
      <trkpt lat="47.94339" lon="7.02792">
        <ele>1209.68</ele>
        <time>2016-11-14T15:44:03Z</time>
      </trkpt>
      <trkpt lat="47.94332" lon="7.02784">
        <ele>1208.82</ele>
        <time>2016-11-14T15:44:09Z</time>
      </trkpt>
      <trkpt lat="47.94321" lon="7.02772">
        <ele>1207.18</ele>
        <time>2016-11-14T15:44:20Z</time>
      </trkpt>
      <trkpt lat="47.94312" lon="7.02764">
        <ele>1207.32</ele>
        <time>2016-11-14T15:44:33Z</time>
      </trkpt>
      <trkpt lat="47.94305" lon="7.02759">
        <ele>1207.54</ele>
        <time>2016-11-14T15:44:53Z</time>
      </trkpt>
      <trkpt lat="47.94302" lon="7.02756">
        <ele>1207.57</ele>
        <time>2016-11-14T15:44:57Z</time>
      </trkpt>
      <trkpt lat="47.94288" lon="7.02745">
        <ele>1207.88</ele>
        <time>2016-11-14T15:45:12Z</time>
      </trkpt>
      <trkpt lat="47.94285" lon="7.02742">
        <ele>1206.82</ele>
        <time>2016-11-14T15:45:24Z</time>
      </trkpt>
      <trkpt lat="47.94285" lon="7.02742">
        <ele>1206.76</ele>
        <time>2016-11-14T15:45:25Z</time>
      </trkpt>
      <trkpt lat="47.94282" lon="7.0274">
        <ele>1206.69</ele>
        <time>2016-11-14T15:45:28Z</time>
      </trkpt>
      <trkpt lat="47.94271" lon="7.02733">
        <ele>1206.61</ele>
        <time>2016-11-14T15:45:38Z</time>
      </trkpt>
      <trkpt lat="47.94259" lon="7.02725">
        <ele>1206.22</ele>
        <time>2016-11-14T15:45:49Z</time>
      </trkpt>
      <trkpt lat="47.94247" lon="7.02716">
        <ele>1206.31</ele>
        <time>2016-11-14T15:46:01Z</time>
      </trkpt>
      <trkpt lat="47.9424" lon="7.02709">
        <ele>1206.5</ele>
        <time>2016-11-14T15:46:09Z</time>
      </trkpt>
      <trkpt lat="47.94224" lon="7.02694">
        <ele>1206.77</ele>
        <time>2016-11-14T15:46:25Z</time>
      </trkpt>
      <trkpt lat="47.94223" lon="7.02693">
        <ele>1206.78</ele>
        <time>2016-11-14T15:46:26Z</time>
      </trkpt>
      <trkpt lat="47.94219" lon="7.0269">
        <ele>1206.82</ele>
        <time>2016-11-14T15:46:30Z</time>
      </trkpt>
      <trkpt lat="47.94207" lon="7.02681">
        <ele>1206.86</ele>
        <time>2016-11-14T15:46:42Z</time>
      </trkpt>
      <trkpt lat="47.94195" lon="7.02668">
        <ele>1206.28</ele>
        <time>2016-11-14T15:46:56Z</time>
      </trkpt>
      <trkpt lat="47.94188" lon="7.02662">
        <ele>1205.93</ele>
        <time>2016-11-14T15:47:09Z</time>
      </trkpt>
      <trkpt lat="47.94182" lon="7.02661">
        <ele>1205.83</ele>
        <time>2016-11-14T15:47:25Z</time>
      </trkpt>
      <trkpt lat="47.94169" lon="7.0265">
        <ele>1204.71</ele>
        <time>2016-11-14T15:47:38Z</time>
      </trkpt>
      <trkpt lat="47.94154" lon="7.0264">
        <ele>1204.55</ele>
        <time>2016-11-14T15:47:52Z</time>
      </trkpt>
      <trkpt lat="47.94141" lon="7.0263">
        <ele>1204.91</ele>
        <time>2016-11-14T15:48:05Z</time>
      </trkpt>
      <trkpt lat="47.94124" lon="7.02617">
        <ele>1205.82</ele>
        <time>2016-11-14T15:48:21Z</time>
      </trkpt>
      <trkpt lat="47.94107" lon="7.02606">
        <ele>1205.99</ele>
        <time>2016-11-14T15:48:36Z</time>
      </trkpt>
      <trkpt lat="47.94094" lon="7.02599">
        <ele>1206.22</ele>
        <time>2016-11-14T15:48:48Z</time>
      </trkpt>
      <trkpt lat="47.9409" lon="7.02604">
        <ele>1206.35</ele>
        <time>2016-11-14T15:48:58Z</time>
      </trkpt>
      <trkpt lat="47.9409" lon="7.02606">
        <ele>1205.38</ele>
        <time>2016-11-14T15:49:09Z</time>
      </trkpt>
      <trkpt lat="47.9409" lon="7.02603">
        <ele>1205.15</ele>
        <time>2016-11-14T15:49:24Z</time>
      </trkpt>
      <trkpt lat="47.9409" lon="7.02597">
        <ele>1205.41</ele>
        <time>2016-11-14T15:49:26Z</time>
      </trkpt>
      <trkpt lat="47.94088" lon="7.02592">
        <ele>1206</ele>
        <time>2016-11-14T15:49:30Z</time>
      </trkpt>
      <trkpt lat="47.94078" lon="7.02597">
        <ele>1206.63</ele>
        <time>2016-11-14T15:49:39Z</time>
      </trkpt>
      <trkpt lat="47.94089" lon="7.02604">
        <ele>1206.13</ele>
        <time>2016-11-14T15:49:50Z</time>
      </trkpt>
      <trkpt lat="47.94089" lon="7.02605">
        <ele>1205.98</ele>
        <time>2016-11-14T15:49:59Z</time>
      </trkpt>
      <trkpt lat="47.94087" lon="7.02604">
        <ele>1205.86</ele>
        <time>2016-11-14T15:50:09Z</time>
      </trkpt>
      <trkpt lat="47.94082" lon="7.02601">
        <ele>1205.83</ele>
        <time>2016-11-14T15:50:13Z</time>
      </trkpt>
      <trkpt lat="47.9407" lon="7.02588">
        <ele>1206.51</ele>
        <time>2016-11-14T15:50:26Z</time>
      </trkpt>
      <trkpt lat="47.94064" lon="7.02583">
        <ele>1206.85</ele>
        <time>2016-11-14T15:50:32Z</time>
      </trkpt>
      <trkpt lat="47.94051" lon="7.02573">
        <ele>1207.73</ele>
        <time>2016-11-14T15:50:45Z</time>
      </trkpt>
      <trkpt lat="47.94039" lon="7.02561">
        <ele>1208.74</ele>
        <time>2016-11-14T15:50:58Z</time>
      </trkpt>
      <trkpt lat="47.94024" lon="7.02551">
        <ele>1209.31</ele>
        <time>2016-11-14T15:51:13Z</time>
      </trkpt>
      <trkpt lat="47.9401" lon="7.02539">
        <ele>1209.5</ele>
        <time>2016-11-14T15:51:26Z</time>
      </trkpt>
      <trkpt lat="47.93996" lon="7.02529">
        <ele>1210.31</ele>
        <time>2016-11-14T15:51:40Z</time>
      </trkpt>
      <trkpt lat="47.93984" lon="7.02522">
        <ele>1210.68</ele>
        <time>2016-11-14T15:51:50Z</time>
      </trkpt>
      <trkpt lat="47.93972" lon="7.02515">
        <ele>1210.9</ele>
        <time>2016-11-14T15:52:02Z</time>
      </trkpt>
      <trkpt lat="47.93968" lon="7.02513">
        <ele>1210.89</ele>
        <time>2016-11-14T15:52:17Z</time>
      </trkpt>
      <trkpt lat="47.93957" lon="7.02509">
        <ele>1210.62</ele>
        <time>2016-11-14T15:52:27Z</time>
      </trkpt>
      <trkpt lat="47.93943" lon="7.02503">
        <ele>1210.34</ele>
        <time>2016-11-14T15:52:38Z</time>
      </trkpt>
      <trkpt lat="47.93936" lon="7.02498">
        <ele>1210.27</ele>
        <time>2016-11-14T15:52:49Z</time>
      </trkpt>
      <trkpt lat="47.93934" lon="7.02497">
        <ele>1210.21</ele>
        <time>2016-11-14T15:52:51Z</time>
      </trkpt>
      <trkpt lat="47.93927" lon="7.02488">
        <ele>1210.26</ele>
        <time>2016-11-14T15:52:59Z</time>
      </trkpt>
      <trkpt lat="47.93915" lon="7.02474">
        <ele>1210.14</ele>
        <time>2016-11-14T15:53:11Z</time>
      </trkpt>
      <trkpt lat="47.93899" lon="7.02461">
        <ele>1210.24</ele>
        <time>2016-11-14T15:53:25Z</time>
      </trkpt>
      <trkpt lat="47.93882" lon="7.02448">
        <ele>1210.04</ele>
        <time>2016-11-14T15:53:41Z</time>
      </trkpt>
      <trkpt lat="47.93869" lon="7.02438">
        <ele>1209.7</ele>
        <time>2016-11-14T15:53:54Z</time>
      </trkpt>
      <trkpt lat="47.9385" lon="7.0242">
        <ele>1209.82</ele>
        <time>2016-11-14T15:54:12Z</time>
      </trkpt>
      <trkpt lat="47.93839" lon="7.02409">
        <ele>1209.81</ele>
        <time>2016-11-14T15:54:23Z</time>
      </trkpt>
      <trkpt lat="47.93826" lon="7.02399">
        <ele>1209.96</ele>
        <time>2016-11-14T15:54:36Z</time>
      </trkpt>
      <trkpt lat="47.93813" lon="7.02389">
        <ele>1210.05</ele>
        <time>2016-11-14T15:54:49Z</time>
      </trkpt>
      <trkpt lat="47.93802" lon="7.02379">
        <ele>1210.24</ele>
        <time>2016-11-14T15:55:01Z</time>
      </trkpt>
      <trkpt lat="47.93799" lon="7.02377">
        <ele>1210.34</ele>
        <time>2016-11-14T15:55:09Z</time>
      </trkpt>
      <trkpt lat="47.93792" lon="7.02372">
        <ele>1210.12</ele>
        <time>2016-11-14T15:55:16Z</time>
      </trkpt>
      <trkpt lat="47.93779" lon="7.02362">
        <ele>1210.01</ele>
        <time>2016-11-14T15:55:28Z</time>
      </trkpt>
      <trkpt lat="47.93766" lon="7.02352">
        <ele>1209.85</ele>
        <time>2016-11-14T15:55:40Z</time>
      </trkpt>
      <trkpt lat="47.93765" lon="7.02351">
        <ele>1209.83</ele>
        <time>2016-11-14T15:55:41Z</time>
      </trkpt>
      <trkpt lat="47.93752" lon="7.02343">
        <ele>1209.68</ele>
        <time>2016-11-14T15:55:53Z</time>
      </trkpt>
      <trkpt lat="47.93739" lon="7.02334">
        <ele>1209.79</ele>
        <time>2016-11-14T15:56:05Z</time>
      </trkpt>
      <trkpt lat="47.93726" lon="7.02326">
        <ele>1210.04</ele>
        <time>2016-11-14T15:56:17Z</time>
      </trkpt>
      <trkpt lat="47.93716" lon="7.02317">
        <ele>1210.56</ele>
        <time>2016-11-14T15:56:28Z</time>
      </trkpt>
      <trkpt lat="47.93712" lon="7.02314">
        <ele>1210.87</ele>
        <time>2016-11-14T15:56:32Z</time>
      </trkpt>
      <trkpt lat="47.93699" lon="7.02303">
        <ele>1211.53</ele>
        <time>2016-11-14T15:56:45Z</time>
      </trkpt>
      <trkpt lat="47.93687" lon="7.02291">
        <ele>1211.94</ele>
        <time>2016-11-14T15:56:58Z</time>
      </trkpt>
      <trkpt lat="47.93672" lon="7.02277">
        <ele>1212.25</ele>
        <time>2016-11-14T15:57:12Z</time>
      </trkpt>
      <trkpt lat="47.93656" lon="7.02264">
        <ele>1212.51</ele>
        <time>2016-11-14T15:57:28Z</time>
      </trkpt>
      <trkpt lat="47.93645" lon="7.02252">
        <ele>1212.43</ele>
        <time>2016-11-14T15:57:40Z</time>
      </trkpt>
      <trkpt lat="47.93632" lon="7.02239">
        <ele>1212.33</ele>
        <time>2016-11-14T15:57:53Z</time>
      </trkpt>
      <trkpt lat="47.9362" lon="7.02225">
        <ele>1211.95</ele>
        <time>2016-11-14T15:58:07Z</time>
      </trkpt>
      <trkpt lat="47.93608" lon="7.0221">
        <ele>1211.55</ele>
        <time>2016-11-14T15:58:19Z</time>
      </trkpt>
      <trkpt lat="47.93594" lon="7.02195">
        <ele>1211.26</ele>
        <time>2016-11-14T15:58:31Z</time>
      </trkpt>
      <trkpt lat="47.9358" lon="7.02178">
        <ele>1210.85</ele>
        <time>2016-11-14T15:58:45Z</time>
      </trkpt>
      <trkpt lat="47.93566" lon="7.02163">
        <ele>1210.87</ele>
        <time>2016-11-14T15:58:59Z</time>
      </trkpt>
      <trkpt lat="47.93552" lon="7.0215">
        <ele>1210.79</ele>
        <time>2016-11-14T15:59:12Z</time>
      </trkpt>
      <trkpt lat="47.9354" lon="7.02137">
        <ele>1211.05</ele>
        <time>2016-11-14T15:59:24Z</time>
      </trkpt>
      <trkpt lat="47.93527" lon="7.02124">
        <ele>1211.39</ele>
        <time>2016-11-14T15:59:36Z</time>
      </trkpt>
      <trkpt lat="47.93513" lon="7.02111">
        <ele>1212.16</ele>
        <time>2016-11-14T15:59:50Z</time>
      </trkpt>
      <trkpt lat="47.93502" lon="7.02097">
        <ele>1213.37</ele>
        <time>2016-11-14T16:00:03Z</time>
      </trkpt>
      <trkpt lat="47.93494" lon="7.02086">
        <ele>1214.18</ele>
        <time>2016-11-14T16:00:13Z</time>
      </trkpt>
      <trkpt lat="47.93487" lon="7.0208">
        <ele>1215.23</ele>
        <time>2016-11-14T16:00:25Z</time>
      </trkpt>
      <trkpt lat="47.93477" lon="7.02067">
        <ele>1216.06</ele>
        <time>2016-11-14T16:00:38Z</time>
      </trkpt>
      <trkpt lat="47.93464" lon="7.02053">
        <ele>1216.98</ele>
        <time>2016-11-14T16:00:52Z</time>
      </trkpt>
      <trkpt lat="47.9345" lon="7.02037">
        <ele>1217.39</ele>
        <time>2016-11-14T16:01:07Z</time>
      </trkpt>
      <trkpt lat="47.93439" lon="7.02021">
        <ele>1217.59</ele>
        <time>2016-11-14T16:01:21Z</time>
      </trkpt>
      <trkpt lat="47.93428" lon="7.02011">
        <ele>1218.06</ele>
        <time>2016-11-14T16:01:32Z</time>
      </trkpt>
      <trkpt lat="47.93416" lon="7.01999">
        <ele>1218.31</ele>
        <time>2016-11-14T16:01:44Z</time>
      </trkpt>
      <trkpt lat="47.93411" lon="7.01996">
        <ele>1218.46</ele>
        <time>2016-11-14T16:01:49Z</time>
      </trkpt>
      <trkpt lat="47.93398" lon="7.01987">
        <ele>1218.22</ele>
        <time>2016-11-14T16:02:01Z</time>
      </trkpt>
      <trkpt lat="47.93394" lon="7.01984">
        <ele>1218.14</ele>
        <time>2016-11-14T16:02:05Z</time>
      </trkpt>
      <trkpt lat="47.93381" lon="7.01977">
        <ele>1217.7</ele>
        <time>2016-11-14T16:02:17Z</time>
      </trkpt>
      <trkpt lat="47.93367" lon="7.01964">
        <ele>1216.12</ele>
        <time>2016-11-14T16:02:30Z</time>
      </trkpt>
      <trkpt lat="47.93352" lon="7.01951">
        <ele>1214.1</ele>
        <time>2016-11-14T16:02:43Z</time>
      </trkpt>
      <trkpt lat="47.93337" lon="7.01939">
        <ele>1212.29</ele>
        <time>2016-11-14T16:02:57Z</time>
      </trkpt>
      <trkpt lat="47.93324" lon="7.01928">
        <ele>1211.03</ele>
        <time>2016-11-14T16:03:09Z</time>
      </trkpt>
      <trkpt lat="47.93308" lon="7.01911">
        <ele>1209.72</ele>
        <time>2016-11-14T16:03:24Z</time>
      </trkpt>
      <trkpt lat="47.93296" lon="7.01897">
        <ele>1208.85</ele>
        <time>2016-11-14T16:03:37Z</time>
      </trkpt>
      <trkpt lat="47.9329" lon="7.0189">
        <ele>1208.41</ele>
        <time>2016-11-14T16:03:45Z</time>
      </trkpt>
      <trkpt lat="47.9328" lon="7.01877">
        <ele>1207.99</ele>
        <time>2016-11-14T16:03:56Z</time>
      </trkpt>
      <trkpt lat="47.93269" lon="7.01863">
        <ele>1207.04</ele>
        <time>2016-11-14T16:04:08Z</time>
      </trkpt>
      <trkpt lat="47.93258" lon="7.01852">
        <ele>1206.36</ele>
        <time>2016-11-14T16:04:19Z</time>
      </trkpt>
      <trkpt lat="47.93246" lon="7.01841">
        <ele>1205.56</ele>
        <time>2016-11-14T16:04:30Z</time>
      </trkpt>
      <trkpt lat="47.93235" lon="7.01832">
        <ele>1204.62</ele>
        <time>2016-11-14T16:04:40Z</time>
      </trkpt>
      <trkpt lat="47.93227" lon="7.01825">
        <ele>1203.82</ele>
        <time>2016-11-14T16:04:48Z</time>
      </trkpt>
      <trkpt lat="47.93215" lon="7.01816">
        <ele>1203.39</ele>
        <time>2016-11-14T16:04:59Z</time>
      </trkpt>
      <trkpt lat="47.93203" lon="7.01807">
        <ele>1202.99</ele>
        <time>2016-11-14T16:05:10Z</time>
      </trkpt>
      <trkpt lat="47.93186" lon="7.01795">
        <ele>1203.16</ele>
        <time>2016-11-14T16:05:25Z</time>
      </trkpt>
      <trkpt lat="47.93168" lon="7.01778">
        <ele>1203.87</ele>
        <time>2016-11-14T16:05:42Z</time>
      </trkpt>
      <trkpt lat="47.93157" lon="7.01764">
        <ele>1204.05</ele>
        <time>2016-11-14T16:05:55Z</time>
      </trkpt>
      <trkpt lat="47.93144" lon="7.01751">
        <ele>1204.16</ele>
        <time>2016-11-14T16:06:09Z</time>
      </trkpt>
      <trkpt lat="47.93142" lon="7.01749">
        <ele>1204.15</ele>
        <time>2016-11-14T16:06:11Z</time>
      </trkpt>
      <trkpt lat="47.93137" lon="7.01743">
        <ele>1204.1</ele>
        <time>2016-11-14T16:06:17Z</time>
      </trkpt>
      <trkpt lat="47.93126" lon="7.01722">
        <ele>1204.27</ele>
        <time>2016-11-14T16:06:32Z</time>
      </trkpt>
      <trkpt lat="47.93113" lon="7.0171">
        <ele>1204.48</ele>
        <time>2016-11-14T16:06:47Z</time>
      </trkpt>
      <trkpt lat="47.93103" lon="7.01696">
        <ele>1205.66</ele>
        <time>2016-11-14T16:07:01Z</time>
      </trkpt>
      <trkpt lat="47.93091" lon="7.01677">
        <ele>1207.13</ele>
        <time>2016-11-14T16:07:17Z</time>
      </trkpt>
      <trkpt lat="47.93082" lon="7.01669">
        <ele>1209.03</ele>
        <time>2016-11-14T16:07:31Z</time>
      </trkpt>
      <trkpt lat="47.93079" lon="7.01664">
        <ele>1209.55</ele>
        <time>2016-11-14T16:07:36Z</time>
      </trkpt>
      <trkpt lat="47.93077" lon="7.01657">
        <ele>1209.84</ele>
        <time>2016-11-14T16:07:41Z</time>
      </trkpt>
      <trkpt lat="47.93074" lon="7.01649">
        <ele>1210.15</ele>
        <time>2016-11-14T16:07:54Z</time>
      </trkpt>
      <trkpt lat="47.93074" lon="7.01648">
        <ele>1209.7</ele>
        <time>2016-11-14T16:08:14Z</time>
      </trkpt>
      <trkpt lat="47.93072" lon="7.01647">
        <ele>1210.17</ele>
        <time>2016-11-14T16:08:31Z</time>
      </trkpt>
      <trkpt lat="47.93071" lon="7.01648">
        <ele>1210.03</ele>
        <time>2016-11-14T16:08:52Z</time>
      </trkpt>
      <trkpt lat="47.9307" lon="7.01648">
        <ele>1210.07</ele>
        <time>2016-11-14T16:09:13Z</time>
      </trkpt>
      <trkpt lat="47.93069" lon="7.01649">
        <ele>1210.28</ele>
        <time>2016-11-14T16:09:31Z</time>
      </trkpt>
      <trkpt lat="47.93068" lon="7.01649">
        <ele>1210.42</ele>
        <time>2016-11-14T16:09:50Z</time>
      </trkpt>
      <trkpt lat="47.93069" lon="7.01649">
        <ele>1210.5</ele>
        <time>2016-11-14T16:10:06Z</time>
      </trkpt>
      <trkpt lat="47.93069" lon="7.01642">
        <ele>1210.27</ele>
        <time>2016-11-14T16:10:14Z</time>
      </trkpt>
      <trkpt lat="47.93065" lon="7.0162">
        <ele>1210.54</ele>
        <time>2016-11-14T16:10:25Z</time>
      </trkpt>
      <trkpt lat="47.93061" lon="7.01597">
        <ele>1210.18</ele>
        <time>2016-11-14T16:10:39Z</time>
      </trkpt>
      <trkpt lat="47.93058" lon="7.01595">
        <ele>1210.06</ele>
        <time>2016-11-14T16:10:42Z</time>
      </trkpt>
      <trkpt lat="47.93054" lon="7.01574">
        <ele>1209.49</ele>
        <time>2016-11-14T16:10:51Z</time>
      </trkpt>
      <trkpt lat="47.93052" lon="7.0157">
        <ele>1208.72</ele>
        <time>2016-11-14T16:10:59Z</time>
      </trkpt>
      <trkpt lat="47.93047" lon="7.01558">
        <ele>1208.23</ele>
        <time>2016-11-14T16:11:17Z</time>
      </trkpt>
      <trkpt lat="47.93039" lon="7.0153">
        <ele>1207.46</ele>
        <time>2016-11-14T16:11:30Z</time>
      </trkpt>
      <trkpt lat="47.93032" lon="7.01504">
        <ele>1206.69</ele>
        <time>2016-11-14T16:11:44Z</time>
      </trkpt>
      <trkpt lat="47.93024" lon="7.01478">
        <ele>1205.67</ele>
        <time>2016-11-14T16:11:57Z</time>
      </trkpt>
      <trkpt lat="47.93017" lon="7.01462">
        <ele>1204.34</ele>
        <time>2016-11-14T16:12:07Z</time>
      </trkpt>
      <trkpt lat="47.93014" lon="7.01458">
        <ele>1203.88</ele>
        <time>2016-11-14T16:12:10Z</time>
      </trkpt>
      <trkpt lat="47.93013" lon="7.01456">
        <ele>1203.74</ele>
        <time>2016-11-14T16:12:11Z</time>
      </trkpt>
      <trkpt lat="47.93012" lon="7.01455">
        <ele>1203.61</ele>
        <time>2016-11-14T16:12:12Z</time>
      </trkpt>
      <trkpt lat="47.93" lon="7.01434">
        <ele>1201.97</ele>
        <time>2016-11-14T16:12:25Z</time>
      </trkpt>
      <trkpt lat="47.92991" lon="7.01418">
        <ele>1201.04</ele>
        <time>2016-11-14T16:12:36Z</time>
      </trkpt>
      <trkpt lat="47.92982" lon="7.01402">
        <ele>1199.92</ele>
        <time>2016-11-14T16:12:46Z</time>
      </trkpt>
      <trkpt lat="47.92975" lon="7.01382">
        <ele>1199.34</ele>
        <time>2016-11-14T16:12:57Z</time>
      </trkpt>
      <trkpt lat="47.9297" lon="7.01356">
        <ele>1198.53</ele>
        <time>2016-11-14T16:13:11Z</time>
      </trkpt>
      <trkpt lat="47.92966" lon="7.01329">
        <ele>1197.8</ele>
        <time>2016-11-14T16:13:25Z</time>
      </trkpt>
      <trkpt lat="47.92959" lon="7.0131">
        <ele>1197.82</ele>
        <time>2016-11-14T16:13:38Z</time>
      </trkpt>
      <trkpt lat="47.92953" lon="7.0129">
        <ele>1197.65</ele>
        <time>2016-11-14T16:13:49Z</time>
      </trkpt>
      <trkpt lat="47.92948" lon="7.01273">
        <ele>1197.58</ele>
        <time>2016-11-14T16:13:59Z</time>
      </trkpt>
      <trkpt lat="47.92942" lon="7.01259">
        <ele>1197.37</ele>
        <time>2016-11-14T16:14:09Z</time>
      </trkpt>
      <trkpt lat="47.92936" lon="7.01243">
        <ele>1197.49</ele>
        <time>2016-11-14T16:14:18Z</time>
      </trkpt>
      <trkpt lat="47.92925" lon="7.0122">
        <ele>1197.08</ele>
        <time>2016-11-14T16:14:32Z</time>
      </trkpt>
      <trkpt lat="47.92914" lon="7.01198">
        <ele>1196.36</ele>
        <time>2016-11-14T16:14:45Z</time>
      </trkpt>
      <trkpt lat="47.92914" lon="7.01197">
        <ele>1196.29</ele>
        <time>2016-11-14T16:14:46Z</time>
      </trkpt>
      <trkpt lat="47.92913" lon="7.01195">
        <ele>1196.2</ele>
        <time>2016-11-14T16:14:47Z</time>
      </trkpt>
      <trkpt lat="47.92902" lon="7.01176">
        <ele>1195</ele>
        <time>2016-11-14T16:14:59Z</time>
      </trkpt>
      <trkpt lat="47.92898" lon="7.0117">
        <ele>1194.68</ele>
        <time>2016-11-14T16:15:03Z</time>
      </trkpt>
      <trkpt lat="47.92897" lon="7.01169">
        <ele>1194.6</ele>
        <time>2016-11-14T16:15:04Z</time>
      </trkpt>
      <trkpt lat="47.92896" lon="7.01168">
        <ele>1194.49</ele>
        <time>2016-11-14T16:15:05Z</time>
      </trkpt>
      <trkpt lat="47.92895" lon="7.01166">
        <ele>1194.38</ele>
        <time>2016-11-14T16:15:06Z</time>
      </trkpt>
      <trkpt lat="47.92893" lon="7.01163">
        <ele>1194.11</ele>
        <time>2016-11-14T16:15:08Z</time>
      </trkpt>
      <trkpt lat="47.92878" lon="7.01143">
        <ele>1192.75</ele>
        <time>2016-11-14T16:15:23Z</time>
      </trkpt>
      <trkpt lat="47.92866" lon="7.01131">
        <ele>1191.62</ele>
        <time>2016-11-14T16:15:34Z</time>
      </trkpt>
      <trkpt lat="47.9285" lon="7.01116">
        <ele>1190.06</ele>
        <time>2016-11-14T16:15:48Z</time>
      </trkpt>
      <trkpt lat="47.92837" lon="7.01104">
        <ele>1188.8</ele>
        <time>2016-11-14T16:16:00Z</time>
      </trkpt>
      <trkpt lat="47.9283" lon="7.01098">
        <ele>1188.11</ele>
        <time>2016-11-14T16:16:06Z</time>
      </trkpt>
      <trkpt lat="47.92818" lon="7.01086">
        <ele>1187.66</ele>
        <time>2016-11-14T16:16:17Z</time>
      </trkpt>
      <trkpt lat="47.92815" lon="7.01083">
        <ele>1187.42</ele>
        <time>2016-11-14T16:16:20Z</time>
      </trkpt>
      <trkpt lat="47.92814" lon="7.01082">
        <ele>1187.33</ele>
        <time>2016-11-14T16:16:21Z</time>
      </trkpt>
      <trkpt lat="47.92813" lon="7.01081">
        <ele>1187.27</ele>
        <time>2016-11-14T16:16:22Z</time>
      </trkpt>
      <trkpt lat="47.92812" lon="7.0108">
        <ele>1187.19</ele>
        <time>2016-11-14T16:16:23Z</time>
      </trkpt>
      <trkpt lat="47.92811" lon="7.01079">
        <ele>1187.12</ele>
        <time>2016-11-14T16:16:24Z</time>
      </trkpt>
      <trkpt lat="47.9281" lon="7.01078">
        <ele>1187.01</ele>
        <time>2016-11-14T16:16:25Z</time>
      </trkpt>
      <trkpt lat="47.92798" lon="7.01067">
        <ele>1186.17</ele>
        <time>2016-11-14T16:16:35Z</time>
      </trkpt>
      <trkpt lat="47.92788" lon="7.01055">
        <ele>1185.22</ele>
        <time>2016-11-14T16:16:46Z</time>
      </trkpt>
      <trkpt lat="47.92785" lon="7.0105">
        <ele>1184.99</ele>
        <time>2016-11-14T16:16:49Z</time>
      </trkpt>
      <trkpt lat="47.92782" lon="7.01044">
        <ele>1184.88</ele>
        <time>2016-11-14T16:16:54Z</time>
      </trkpt>
      <trkpt lat="47.92781" lon="7.01042">
        <ele>1184.88</ele>
        <time>2016-11-14T16:16:55Z</time>
      </trkpt>
      <trkpt lat="47.9278" lon="7.01041">
        <ele>1184.9</ele>
        <time>2016-11-14T16:16:56Z</time>
      </trkpt>
      <trkpt lat="47.92773" lon="7.01021">
        <ele>1185.23</ele>
        <time>2016-11-14T16:17:09Z</time>
      </trkpt>
      <trkpt lat="47.92769" lon="7.01013">
        <ele>1185.4</ele>
        <time>2016-11-14T16:17:14Z</time>
      </trkpt>
      <trkpt lat="47.9276" lon="7.00992">
        <ele>1185.12</ele>
        <time>2016-11-14T16:17:25Z</time>
      </trkpt>
      <trkpt lat="47.92751" lon="7.00969">
        <ele>1184.74</ele>
        <time>2016-11-14T16:17:38Z</time>
      </trkpt>
      <trkpt lat="47.9274" lon="7.00945">
        <ele>1183.93</ele>
        <time>2016-11-14T16:17:52Z</time>
      </trkpt>
      <trkpt lat="47.92733" lon="7.0093">
        <ele>1183.37</ele>
        <time>2016-11-14T16:18:02Z</time>
      </trkpt>
      <trkpt lat="47.92724" lon="7.0091">
        <ele>1182.57</ele>
        <time>2016-11-14T16:18:15Z</time>
      </trkpt>
      <trkpt lat="47.92713" lon="7.00896">
        <ele>1181.52</ele>
        <time>2016-11-14T16:18:26Z</time>
      </trkpt>
      <trkpt lat="47.92702" lon="7.00883">
        <ele>1180.53</ele>
        <time>2016-11-14T16:18:38Z</time>
      </trkpt>
      <trkpt lat="47.92696" lon="7.00876">
        <ele>1179.88</ele>
        <time>2016-11-14T16:18:44Z</time>
      </trkpt>
      <trkpt lat="47.92695" lon="7.00875">
        <ele>1179.77</ele>
        <time>2016-11-14T16:18:45Z</time>
      </trkpt>
      <trkpt lat="47.92694" lon="7.00874">
        <ele>1179.67</ele>
        <time>2016-11-14T16:18:46Z</time>
      </trkpt>
      <trkpt lat="47.92692" lon="7.00873">
        <ele>1179.58</ele>
        <time>2016-11-14T16:18:47Z</time>
      </trkpt>
      <trkpt lat="47.92691" lon="7.00871">
        <ele>1179.51</ele>
        <time>2016-11-14T16:18:48Z</time>
      </trkpt>
      <trkpt lat="47.9269" lon="7.0087">
        <ele>1179.43</ele>
        <time>2016-11-14T16:18:49Z</time>
      </trkpt>
      <trkpt lat="47.92689" lon="7.00869">
        <ele>1179.38</ele>
        <time>2016-11-14T16:18:50Z</time>
      </trkpt>
      <trkpt lat="47.92688" lon="7.00868">
        <ele>1179.32</ele>
        <time>2016-11-14T16:18:51Z</time>
      </trkpt>
      <trkpt lat="47.92678" lon="7.00858">
        <ele>1178.46</ele>
        <time>2016-11-14T16:19:02Z</time>
      </trkpt>
      <trkpt lat="47.92665" lon="7.00845">
        <ele>1177.24</ele>
        <time>2016-11-14T16:19:14Z</time>
      </trkpt>
      <trkpt lat="47.92657" lon="7.00842">
        <ele>1176.43</ele>
        <time>2016-11-14T16:19:26Z</time>
      </trkpt>
      <trkpt lat="47.92655" lon="7.0084">
        <ele>1176.29</ele>
        <time>2016-11-14T16:19:45Z</time>
      </trkpt>
      <trkpt lat="47.92645" lon="7.00833">
        <ele>1175.76</ele>
        <time>2016-11-14T16:19:54Z</time>
      </trkpt>
      <trkpt lat="47.92643" lon="7.00832">
        <ele>1175.68</ele>
        <time>2016-11-14T16:19:55Z</time>
      </trkpt>
      <trkpt lat="47.92642" lon="7.00832">
        <ele>1175.6</ele>
        <time>2016-11-14T16:19:56Z</time>
      </trkpt>
      <trkpt lat="47.92641" lon="7.00832">
        <ele>1175.52</ele>
        <time>2016-11-14T16:19:57Z</time>
      </trkpt>
      <trkpt lat="47.9264" lon="7.00832">
        <ele>1175.46</ele>
        <time>2016-11-14T16:19:58Z</time>
      </trkpt>
      <trkpt lat="47.92629" lon="7.00833">
        <ele>1174.61</ele>
        <time>2016-11-14T16:20:08Z</time>
      </trkpt>
      <trkpt lat="47.92624" lon="7.00834">
        <ele>1174.19</ele>
        <time>2016-11-14T16:20:16Z</time>
      </trkpt>
      <trkpt lat="47.92623" lon="7.00835">
        <ele>1174.15</ele>
        <time>2016-11-14T16:20:17Z</time>
      </trkpt>
      <trkpt lat="47.92621" lon="7.00836">
        <ele>1174.1</ele>
        <time>2016-11-14T16:20:18Z</time>
      </trkpt>
      <trkpt lat="47.9262" lon="7.00836">
        <ele>1174.05</ele>
        <time>2016-11-14T16:20:19Z</time>
      </trkpt>
      <trkpt lat="47.9262" lon="7.00838">
        <ele>1173.99</ele>
        <time>2016-11-14T16:20:20Z</time>
      </trkpt>
      <trkpt lat="47.92619" lon="7.00839">
        <ele>1173.94</ele>
        <time>2016-11-14T16:20:21Z</time>
      </trkpt>
      <trkpt lat="47.92618" lon="7.00844">
        <ele>1173.27</ele>
        <time>2016-11-14T16:20:33Z</time>
      </trkpt>
      <trkpt lat="47.92617" lon="7.00841">
        <ele>1173.18</ele>
        <time>2016-11-14T16:20:46Z</time>
      </trkpt>
      <trkpt lat="47.92616" lon="7.00839">
        <ele>1173.21</ele>
        <time>2016-11-14T16:20:47Z</time>
      </trkpt>
      <trkpt lat="47.92615" lon="7.0084">
        <ele>1172.74</ele>
        <time>2016-11-14T16:20:58Z</time>
      </trkpt>
      <trkpt lat="47.92615" lon="7.00844">
        <ele>1173.32</ele>
        <time>2016-11-14T16:21:11Z</time>
      </trkpt>
      <trkpt lat="47.92617" lon="7.00844">
        <ele>1173.82</ele>
        <time>2016-11-14T16:21:25Z</time>
      </trkpt>
      <trkpt lat="47.92615" lon="7.00844">
        <ele>1173.89</ele>
        <time>2016-11-14T16:21:51Z</time>
      </trkpt>
      <trkpt lat="47.92612" lon="7.00846">
        <ele>1173.43</ele>
        <time>2016-11-14T16:22:01Z</time>
      </trkpt>
      <trkpt lat="47.92611" lon="7.00848">
        <ele>1173.37</ele>
        <time>2016-11-14T16:22:02Z</time>
      </trkpt>
      <trkpt lat="47.9261" lon="7.00849">
        <ele>1173.29</ele>
        <time>2016-11-14T16:22:03Z</time>
      </trkpt>
      <trkpt lat="47.92609" lon="7.0085">
        <ele>1173.18</ele>
        <time>2016-11-14T16:22:04Z</time>
      </trkpt>
      <trkpt lat="47.92595" lon="7.00866">
        <ele>1171.68</ele>
        <time>2016-11-14T16:22:17Z</time>
      </trkpt>
      <trkpt lat="47.92584" lon="7.00877">
        <ele>1170.66</ele>
        <time>2016-11-14T16:22:28Z</time>
      </trkpt>
      <trkpt lat="47.9257" lon="7.00892">
        <ele>1168.83</ele>
        <time>2016-11-14T16:22:41Z</time>
      </trkpt>
      <trkpt lat="47.92557" lon="7.00902">
        <ele>1167.75</ele>
        <time>2016-11-14T16:22:52Z</time>
      </trkpt>
      <trkpt lat="47.92544" lon="7.00915">
        <ele>1166.28</ele>
        <time>2016-11-14T16:23:03Z</time>
      </trkpt>
      <trkpt lat="47.92531" lon="7.00924">
        <ele>1165.26</ele>
        <time>2016-11-14T16:23:13Z</time>
      </trkpt>
      <trkpt lat="47.9253" lon="7.00925">
        <ele>1165.21</ele>
        <time>2016-11-14T16:23:14Z</time>
      </trkpt>
      <trkpt lat="47.92529" lon="7.00925">
        <ele>1165.17</ele>
        <time>2016-11-14T16:23:15Z</time>
      </trkpt>
      <trkpt lat="47.92528" lon="7.00925">
        <ele>1165.12</ele>
        <time>2016-11-14T16:23:16Z</time>
      </trkpt>
      <trkpt lat="47.92526" lon="7.00925">
        <ele>1165.07</ele>
        <time>2016-11-14T16:23:17Z</time>
      </trkpt>
      <trkpt lat="47.92524" lon="7.00924">
        <ele>1165.03</ele>
        <time>2016-11-14T16:23:18Z</time>
      </trkpt>
      <trkpt lat="47.92512" lon="7.0092">
        <ele>1164.62</ele>
        <time>2016-11-14T16:23:29Z</time>
      </trkpt>
      <trkpt lat="47.9251" lon="7.00921">
        <ele>1164.64</ele>
        <time>2016-11-14T16:23:31Z</time>
      </trkpt>
      <trkpt lat="47.92497" lon="7.00932">
        <ele>1164.95</ele>
        <time>2016-11-14T16:23:43Z</time>
      </trkpt>
      <trkpt lat="47.92482" lon="7.00948">
        <ele>1165.84</ele>
        <time>2016-11-14T16:23:57Z</time>
      </trkpt>
      <trkpt lat="47.92473" lon="7.00958">
        <ele>1167.13</ele>
        <time>2016-11-14T16:24:05Z</time>
      </trkpt>
      <trkpt lat="47.92472" lon="7.00959">
        <ele>1167.17</ele>
        <time>2016-11-14T16:24:06Z</time>
      </trkpt>
      <trkpt lat="47.92462" lon="7.00971">
        <ele>1167.74</ele>
        <time>2016-11-14T16:24:17Z</time>
      </trkpt>
      <trkpt lat="47.92461" lon="7.00972">
        <ele>1167.78</ele>
        <time>2016-11-14T16:24:18Z</time>
      </trkpt>
      <trkpt lat="47.9246" lon="7.00974">
        <ele>1167.88</ele>
        <time>2016-11-14T16:24:20Z</time>
      </trkpt>
      <trkpt lat="47.92459" lon="7.00975">
        <ele>1167.94</ele>
        <time>2016-11-14T16:24:21Z</time>
      </trkpt>
      <trkpt lat="47.92458" lon="7.00977">
        <ele>1168</ele>
        <time>2016-11-14T16:24:22Z</time>
      </trkpt>
      <trkpt lat="47.92457" lon="7.00978">
        <ele>1168.07</ele>
        <time>2016-11-14T16:24:23Z</time>
      </trkpt>
      <trkpt lat="47.92456" lon="7.00979">
        <ele>1168.13</ele>
        <time>2016-11-14T16:24:24Z</time>
      </trkpt>
      <trkpt lat="47.92454" lon="7.00981">
        <ele>1168.2</ele>
        <time>2016-11-14T16:24:25Z</time>
      </trkpt>
      <trkpt lat="47.92453" lon="7.00983">
        <ele>1168.27</ele>
        <time>2016-11-14T16:24:26Z</time>
      </trkpt>
      <trkpt lat="47.92452" lon="7.00984">
        <ele>1168.36</ele>
        <time>2016-11-14T16:24:27Z</time>
      </trkpt>
      <trkpt lat="47.92449" lon="7.00987">
        <ele>1169.35</ele>
        <time>2016-11-14T16:24:37Z</time>
      </trkpt>
      <trkpt lat="47.92447" lon="7.00986">
        <ele>1169.27</ele>
        <time>2016-11-14T16:24:47Z</time>
      </trkpt>
    </trkseg>
  </trk>
</gpx>